<?xml version="1.0" encoding="UTF-8" standalone="no" ?>
<gpx xmlns="http://www.topografix.com/GPX/1/1" xmlns:xsi="http://www.w3.org/2001/XMLSchema-instance" xsi:schemaLocation="http://www.topografix.com/GPX/1/1 http://www.topografix.com/GPX/1/1/gpx.xsd" version="1.1" creator="VisuGPX - https://www.visugpx.com">
  <metadata>
    <name>11 oct. 2020</name>
    <desc><![CDATA[grp_trc:]]></desc>
  </metadata>
  <trk>
    <name><![CDATA[11 oct. 2020]]></name>
    <cmt><![CDATA[09:25:16]]></cmt>
    <desc><![CDATA[comment ...]]></desc>
    <trkseg>
      <trkpt lat="44.5221" lon="6.15113">
        <ele>733</ele>
        <time>2020-10-11T07:20:05Z</time>
      </trkpt>
      <trkpt lat="44.52209" lon="6.15107">
        <ele>733</ele>
        <time>2020-10-11T07:20:06Z</time>
      </trkpt>
      <trkpt lat="44.52196" lon="6.15109">
        <ele>733</ele>
        <time>2020-10-11T07:20:09Z</time>
      </trkpt>
      <trkpt lat="44.52199" lon="6.15114">
        <ele>733</ele>
        <time>2020-10-11T07:20:15Z</time>
      </trkpt>
      <trkpt lat="44.52205" lon="6.15117">
        <ele>733</ele>
        <time>2020-10-11T07:20:21Z</time>
      </trkpt>
      <trkpt lat="44.5221" lon="6.15115">
        <ele>733</ele>
        <time>2020-10-11T07:20:26Z</time>
      </trkpt>
      <trkpt lat="44.5222" lon="6.15108">
        <ele>733</ele>
        <time>2020-10-11T07:20:39Z</time>
      </trkpt>
      <trkpt lat="44.52225" lon="6.15091">
        <ele>734</ele>
        <time>2020-10-11T07:20:52Z</time>
      </trkpt>
      <trkpt lat="44.5223" lon="6.15068">
        <ele>733</ele>
        <time>2020-10-11T07:21:07Z</time>
      </trkpt>
      <trkpt lat="44.52236" lon="6.15059">
        <ele>733</ele>
        <time>2020-10-11T07:21:17Z</time>
      </trkpt>
      <trkpt lat="44.52243" lon="6.15052">
        <ele>732</ele>
        <time>2020-10-11T07:21:26Z</time>
      </trkpt>
      <trkpt lat="44.52251" lon="6.1505">
        <ele>732</ele>
        <time>2020-10-11T07:21:37Z</time>
      </trkpt>
      <trkpt lat="44.52255" lon="6.15047">
        <ele>732</ele>
        <time>2020-10-11T07:21:41Z</time>
      </trkpt>
      <trkpt lat="44.52262" lon="6.15039">
        <ele>731</ele>
        <time>2020-10-11T07:21:48Z</time>
      </trkpt>
      <trkpt lat="44.52265" lon="6.15037">
        <ele>731</ele>
        <time>2020-10-11T07:21:52Z</time>
      </trkpt>
      <trkpt lat="44.52271" lon="6.15027">
        <ele>731</ele>
        <time>2020-10-11T07:21:58Z</time>
      </trkpt>
      <trkpt lat="44.52273" lon="6.15022">
        <ele>731</ele>
        <time>2020-10-11T07:22:03Z</time>
      </trkpt>
      <trkpt lat="44.52276" lon="6.15016">
        <ele>731</ele>
        <time>2020-10-11T07:22:07Z</time>
      </trkpt>
      <trkpt lat="44.52277" lon="6.1501">
        <ele>730</ele>
        <time>2020-10-11T07:22:11Z</time>
      </trkpt>
      <trkpt lat="44.52277" lon="6.15006">
        <ele>730</ele>
        <time>2020-10-11T07:22:14Z</time>
      </trkpt>
      <trkpt lat="44.52286" lon="6.14976">
        <ele>728</ele>
        <time>2020-10-11T07:22:36Z</time>
      </trkpt>
      <trkpt lat="44.52287" lon="6.14971">
        <ele>728</ele>
        <time>2020-10-11T07:22:39Z</time>
      </trkpt>
      <trkpt lat="44.52291" lon="6.14959">
        <ele>726</ele>
        <time>2020-10-11T07:22:48Z</time>
      </trkpt>
      <trkpt lat="44.52293" lon="6.14948">
        <ele>725</ele>
        <time>2020-10-11T07:22:53Z</time>
      </trkpt>
      <trkpt lat="44.52293" lon="6.14942">
        <ele>725</ele>
        <time>2020-10-11T07:22:55Z</time>
      </trkpt>
      <trkpt lat="44.52293" lon="6.14936">
        <ele>725</ele>
        <time>2020-10-11T07:22:57Z</time>
      </trkpt>
      <trkpt lat="44.52292" lon="6.14931">
        <ele>725</ele>
        <time>2020-10-11T07:23:00Z</time>
      </trkpt>
      <trkpt lat="44.52292" lon="6.14924">
        <ele>724</ele>
        <time>2020-10-11T07:23:04Z</time>
      </trkpt>
      <trkpt lat="44.52292" lon="6.14919">
        <ele>724</ele>
        <time>2020-10-11T07:23:09Z</time>
      </trkpt>
      <trkpt lat="44.52296" lon="6.14917">
        <ele>724</ele>
        <time>2020-10-11T07:23:15Z</time>
      </trkpt>
      <trkpt lat="44.52297" lon="6.14911">
        <ele>723</ele>
        <time>2020-10-11T07:23:20Z</time>
      </trkpt>
      <trkpt lat="44.52302" lon="6.14908">
        <ele>723</ele>
        <time>2020-10-11T07:23:23Z</time>
      </trkpt>
      <trkpt lat="44.52307" lon="6.1491">
        <ele>723</ele>
        <time>2020-10-11T07:23:26Z</time>
      </trkpt>
      <trkpt lat="44.52316" lon="6.14908">
        <ele>723</ele>
        <time>2020-10-11T07:23:35Z</time>
      </trkpt>
      <trkpt lat="44.52319" lon="6.1491">
        <ele>722</ele>
        <time>2020-10-11T07:23:39Z</time>
      </trkpt>
      <trkpt lat="44.52332" lon="6.14918">
        <ele>721</ele>
        <time>2020-10-11T07:23:50Z</time>
      </trkpt>
      <trkpt lat="44.52334" lon="6.1492">
        <ele>721</ele>
        <time>2020-10-11T07:23:53Z</time>
      </trkpt>
      <trkpt lat="44.52339" lon="6.14926">
        <ele>721</ele>
        <time>2020-10-11T07:24:01Z</time>
      </trkpt>
      <trkpt lat="44.52343" lon="6.14932">
        <ele>721</ele>
        <time>2020-10-11T07:24:09Z</time>
      </trkpt>
      <trkpt lat="44.52345" lon="6.14935">
        <ele>722</ele>
        <time>2020-10-11T07:24:12Z</time>
      </trkpt>
      <trkpt lat="44.5235" lon="6.14943">
        <ele>723</ele>
        <time>2020-10-11T07:24:51Z</time>
      </trkpt>
      <trkpt lat="44.5235" lon="6.14947">
        <ele>724</ele>
        <time>2020-10-11T07:24:57Z</time>
      </trkpt>
      <trkpt lat="44.52351" lon="6.14951">
        <ele>724</ele>
        <time>2020-10-11T07:25:02Z</time>
      </trkpt>
      <trkpt lat="44.52352" lon="6.14954">
        <ele>724</ele>
        <time>2020-10-11T07:25:06Z</time>
      </trkpt>
      <trkpt lat="44.52355" lon="6.14956">
        <ele>724</ele>
        <time>2020-10-11T07:25:09Z</time>
      </trkpt>
      <trkpt lat="44.52357" lon="6.14958">
        <ele>725</ele>
        <time>2020-10-11T07:25:12Z</time>
      </trkpt>
      <trkpt lat="44.5236" lon="6.14956">
        <ele>725</ele>
        <time>2020-10-11T07:25:17Z</time>
      </trkpt>
      <trkpt lat="44.52362" lon="6.14944">
        <ele>727</ele>
        <time>2020-10-11T07:25:28Z</time>
      </trkpt>
      <trkpt lat="44.52363" lon="6.1494">
        <ele>727</ele>
        <time>2020-10-11T07:25:33Z</time>
      </trkpt>
      <trkpt lat="44.52363" lon="6.14936">
        <ele>728</ele>
        <time>2020-10-11T07:25:37Z</time>
      </trkpt>
      <trkpt lat="44.52367" lon="6.14929">
        <ele>730</ele>
        <time>2020-10-11T07:25:49Z</time>
      </trkpt>
      <trkpt lat="44.52369" lon="6.14927">
        <ele>730</ele>
        <time>2020-10-11T07:25:57Z</time>
      </trkpt>
      <trkpt lat="44.52372" lon="6.14926">
        <ele>731</ele>
        <time>2020-10-11T07:25:59Z</time>
      </trkpt>
      <trkpt lat="44.52378" lon="6.14922">
        <ele>733</ele>
        <time>2020-10-11T07:26:17Z</time>
      </trkpt>
      <trkpt lat="44.52381" lon="6.14923">
        <ele>734</ele>
        <time>2020-10-11T07:26:21Z</time>
      </trkpt>
      <trkpt lat="44.52384" lon="6.14923">
        <ele>734</ele>
        <time>2020-10-11T07:26:27Z</time>
      </trkpt>
      <trkpt lat="44.52386" lon="6.14926">
        <ele>735</ele>
        <time>2020-10-11T07:26:33Z</time>
      </trkpt>
      <trkpt lat="44.52386" lon="6.1493">
        <ele>736</ele>
        <time>2020-10-11T07:26:35Z</time>
      </trkpt>
      <trkpt lat="44.52384" lon="6.14934">
        <ele>736</ele>
        <time>2020-10-11T07:26:38Z</time>
      </trkpt>
      <trkpt lat="44.52383" lon="6.14937">
        <ele>737</ele>
        <time>2020-10-11T07:26:49Z</time>
      </trkpt>
      <trkpt lat="44.52381" lon="6.1494">
        <ele>738</ele>
        <time>2020-10-11T07:26:54Z</time>
      </trkpt>
      <trkpt lat="44.52378" lon="6.14953">
        <ele>740</ele>
        <time>2020-10-11T07:27:11Z</time>
      </trkpt>
      <trkpt lat="44.52382" lon="6.14965">
        <ele>741</ele>
        <time>2020-10-11T07:27:31Z</time>
      </trkpt>
      <trkpt lat="44.5239" lon="6.14975">
        <ele>744</ele>
        <time>2020-10-11T07:27:49Z</time>
      </trkpt>
      <trkpt lat="44.52397" lon="6.14977">
        <ele>745</ele>
        <time>2020-10-11T07:27:56Z</time>
      </trkpt>
      <trkpt lat="44.524" lon="6.14976">
        <ele>746</ele>
        <time>2020-10-11T07:28:09Z</time>
      </trkpt>
      <trkpt lat="44.524" lon="6.14959">
        <ele>749</ele>
        <time>2020-10-11T07:28:39Z</time>
      </trkpt>
      <trkpt lat="44.52402" lon="6.14957">
        <ele>750</ele>
        <time>2020-10-11T07:28:49Z</time>
      </trkpt>
      <trkpt lat="44.52411" lon="6.14966">
        <ele>751</ele>
        <time>2020-10-11T07:28:57Z</time>
      </trkpt>
      <trkpt lat="44.52416" lon="6.14971">
        <ele>752</ele>
        <time>2020-10-11T07:29:05Z</time>
      </trkpt>
      <trkpt lat="44.52419" lon="6.14971">
        <ele>753</ele>
        <time>2020-10-11T07:29:16Z</time>
      </trkpt>
      <trkpt lat="44.52421" lon="6.14969">
        <ele>754</ele>
        <time>2020-10-11T07:29:22Z</time>
      </trkpt>
      <trkpt lat="44.52423" lon="6.14971">
        <ele>755</ele>
        <time>2020-10-11T07:29:29Z</time>
      </trkpt>
      <trkpt lat="44.52431" lon="6.1497">
        <ele>757</ele>
        <time>2020-10-11T07:29:45Z</time>
      </trkpt>
      <trkpt lat="44.52435" lon="6.14969">
        <ele>757</ele>
        <time>2020-10-11T07:29:50Z</time>
      </trkpt>
      <trkpt lat="44.52441" lon="6.14969">
        <ele>759</ele>
        <time>2020-10-11T07:30:02Z</time>
      </trkpt>
      <trkpt lat="44.52444" lon="6.1497">
        <ele>759</ele>
        <time>2020-10-11T07:30:09Z</time>
      </trkpt>
      <trkpt lat="44.52447" lon="6.1497">
        <ele>760</ele>
        <time>2020-10-11T07:30:12Z</time>
      </trkpt>
      <trkpt lat="44.52451" lon="6.14969">
        <ele>760</ele>
        <time>2020-10-11T07:30:16Z</time>
      </trkpt>
      <trkpt lat="44.52454" lon="6.14968">
        <ele>761</ele>
        <time>2020-10-11T07:30:22Z</time>
      </trkpt>
      <trkpt lat="44.52468" lon="6.14969">
        <ele>763</ele>
        <time>2020-10-11T07:30:47Z</time>
      </trkpt>
      <trkpt lat="44.52471" lon="6.1497">
        <ele>764</ele>
        <time>2020-10-11T07:30:53Z</time>
      </trkpt>
      <trkpt lat="44.52473" lon="6.14972">
        <ele>765</ele>
        <time>2020-10-11T07:30:59Z</time>
      </trkpt>
      <trkpt lat="44.52476" lon="6.14971">
        <ele>766</ele>
        <time>2020-10-11T07:31:07Z</time>
      </trkpt>
      <trkpt lat="44.52479" lon="6.14971">
        <ele>767</ele>
        <time>2020-10-11T07:31:11Z</time>
      </trkpt>
      <trkpt lat="44.52486" lon="6.14969">
        <ele>768</ele>
        <time>2020-10-11T07:31:22Z</time>
      </trkpt>
      <trkpt lat="44.52488" lon="6.1497">
        <ele>769</ele>
        <time>2020-10-11T07:31:26Z</time>
      </trkpt>
      <trkpt lat="44.52508" lon="6.14971">
        <ele>771</ele>
        <time>2020-10-11T07:31:53Z</time>
      </trkpt>
      <trkpt lat="44.52514" lon="6.14965">
        <ele>773</ele>
        <time>2020-10-11T07:32:03Z</time>
      </trkpt>
      <trkpt lat="44.52519" lon="6.1496">
        <ele>773</ele>
        <time>2020-10-11T07:32:14Z</time>
      </trkpt>
      <trkpt lat="44.52522" lon="6.14959">
        <ele>774</ele>
        <time>2020-10-11T07:32:22Z</time>
      </trkpt>
      <trkpt lat="44.52532" lon="6.14961">
        <ele>776</ele>
        <time>2020-10-11T07:32:34Z</time>
      </trkpt>
      <trkpt lat="44.52535" lon="6.14962">
        <ele>776</ele>
        <time>2020-10-11T07:32:37Z</time>
      </trkpt>
      <trkpt lat="44.52544" lon="6.14965">
        <ele>777</ele>
        <time>2020-10-11T07:32:51Z</time>
      </trkpt>
      <trkpt lat="44.5255" lon="6.14967">
        <ele>777</ele>
        <time>2020-10-11T07:32:59Z</time>
      </trkpt>
      <trkpt lat="44.52554" lon="6.14968">
        <ele>778</ele>
        <time>2020-10-11T07:33:06Z</time>
      </trkpt>
      <trkpt lat="44.52566" lon="6.14969">
        <ele>780</ele>
        <time>2020-10-11T07:33:24Z</time>
      </trkpt>
      <trkpt lat="44.5257" lon="6.14966">
        <ele>782</ele>
        <time>2020-10-11T07:33:35Z</time>
      </trkpt>
      <trkpt lat="44.52565" lon="6.14966">
        <ele>788</ele>
        <time>2020-10-11T07:34:16Z</time>
      </trkpt>
      <trkpt lat="44.52567" lon="6.14961">
        <ele>788</ele>
        <time>2020-10-11T07:34:27Z</time>
      </trkpt>
      <trkpt lat="44.5257" lon="6.14957">
        <ele>789</ele>
        <time>2020-10-11T07:34:31Z</time>
      </trkpt>
      <trkpt lat="44.52572" lon="6.14949">
        <ele>790</ele>
        <time>2020-10-11T07:34:42Z</time>
      </trkpt>
      <trkpt lat="44.52586" lon="6.14942">
        <ele>793</ele>
        <time>2020-10-11T07:35:14Z</time>
      </trkpt>
      <trkpt lat="44.52596" lon="6.14933">
        <ele>793</ele>
        <time>2020-10-11T07:35:28Z</time>
      </trkpt>
      <trkpt lat="44.52608" lon="6.14923">
        <ele>793</ele>
        <time>2020-10-11T07:35:35Z</time>
      </trkpt>
      <trkpt lat="44.52612" lon="6.1492">
        <ele>793</ele>
        <time>2020-10-11T07:35:39Z</time>
      </trkpt>
      <trkpt lat="44.52615" lon="6.1492">
        <ele>793</ele>
        <time>2020-10-11T07:35:44Z</time>
      </trkpt>
      <trkpt lat="44.52622" lon="6.14915">
        <ele>794</ele>
        <time>2020-10-11T07:35:51Z</time>
      </trkpt>
      <trkpt lat="44.52624" lon="6.14912">
        <ele>795</ele>
        <time>2020-10-11T07:35:58Z</time>
      </trkpt>
      <trkpt lat="44.5263" lon="6.14907">
        <ele>795</ele>
        <time>2020-10-11T07:36:02Z</time>
      </trkpt>
      <trkpt lat="44.52633" lon="6.14904">
        <ele>795</ele>
        <time>2020-10-11T07:36:06Z</time>
      </trkpt>
      <trkpt lat="44.52634" lon="6.149">
        <ele>796</ele>
        <time>2020-10-11T07:36:10Z</time>
      </trkpt>
      <trkpt lat="44.52636" lon="6.14897">
        <ele>796</ele>
        <time>2020-10-11T07:36:15Z</time>
      </trkpt>
      <trkpt lat="44.52639" lon="6.1489">
        <ele>797</ele>
        <time>2020-10-11T07:36:23Z</time>
      </trkpt>
      <trkpt lat="44.52641" lon="6.14885">
        <ele>798</ele>
        <time>2020-10-11T07:36:28Z</time>
      </trkpt>
      <trkpt lat="44.52644" lon="6.14883">
        <ele>799</ele>
        <time>2020-10-11T07:36:31Z</time>
      </trkpt>
      <trkpt lat="44.52649" lon="6.1488">
        <ele>800</ele>
        <time>2020-10-11T07:36:40Z</time>
      </trkpt>
      <trkpt lat="44.52652" lon="6.14878">
        <ele>800</ele>
        <time>2020-10-11T07:36:44Z</time>
      </trkpt>
      <trkpt lat="44.52658" lon="6.14874">
        <ele>801</ele>
        <time>2020-10-11T07:36:51Z</time>
      </trkpt>
      <trkpt lat="44.52661" lon="6.14876">
        <ele>802</ele>
        <time>2020-10-11T07:36:55Z</time>
      </trkpt>
      <trkpt lat="44.52669" lon="6.14874">
        <ele>802</ele>
        <time>2020-10-11T07:37:01Z</time>
      </trkpt>
      <trkpt lat="44.52673" lon="6.14872">
        <ele>802</ele>
        <time>2020-10-11T07:37:05Z</time>
      </trkpt>
      <trkpt lat="44.52677" lon="6.1487">
        <ele>802</ele>
        <time>2020-10-11T07:37:07Z</time>
      </trkpt>
      <trkpt lat="44.52689" lon="6.14868">
        <ele>802</ele>
        <time>2020-10-11T07:37:23Z</time>
      </trkpt>
      <trkpt lat="44.52692" lon="6.14871">
        <ele>803</ele>
        <time>2020-10-11T07:37:28Z</time>
      </trkpt>
      <trkpt lat="44.52696" lon="6.14873">
        <ele>803</ele>
        <time>2020-10-11T07:37:32Z</time>
      </trkpt>
      <trkpt lat="44.527" lon="6.14873">
        <ele>803</ele>
        <time>2020-10-11T07:37:38Z</time>
      </trkpt>
      <trkpt lat="44.52702" lon="6.14869">
        <ele>804</ele>
        <time>2020-10-11T07:37:45Z</time>
      </trkpt>
      <trkpt lat="44.52705" lon="6.14869">
        <ele>804</ele>
        <time>2020-10-11T07:37:49Z</time>
      </trkpt>
      <trkpt lat="44.52708" lon="6.14866">
        <ele>805</ele>
        <time>2020-10-11T07:37:52Z</time>
      </trkpt>
      <trkpt lat="44.52703" lon="6.14862">
        <ele>806</ele>
        <time>2020-10-11T07:38:07Z</time>
      </trkpt>
      <trkpt lat="44.52701" lon="6.14858">
        <ele>806</ele>
        <time>2020-10-11T07:38:13Z</time>
      </trkpt>
      <trkpt lat="44.52703" lon="6.14852">
        <ele>807</ele>
        <time>2020-10-11T07:38:25Z</time>
      </trkpt>
      <trkpt lat="44.52715" lon="6.14834">
        <ele>809</ele>
        <time>2020-10-11T07:38:35Z</time>
      </trkpt>
      <trkpt lat="44.52731" lon="6.14832">
        <ele>809</ele>
        <time>2020-10-11T07:38:42Z</time>
      </trkpt>
      <trkpt lat="44.52732" lon="6.14827">
        <ele>809</ele>
        <time>2020-10-11T07:38:50Z</time>
      </trkpt>
      <trkpt lat="44.52739" lon="6.14817">
        <ele>810</ele>
        <time>2020-10-11T07:39:03Z</time>
      </trkpt>
      <trkpt lat="44.52741" lon="6.1481">
        <ele>810</ele>
        <time>2020-10-11T07:39:07Z</time>
      </trkpt>
      <trkpt lat="44.52749" lon="6.14808">
        <ele>810</ele>
        <time>2020-10-11T07:39:13Z</time>
      </trkpt>
      <trkpt lat="44.52754" lon="6.14806">
        <ele>811</ele>
        <time>2020-10-11T07:39:16Z</time>
      </trkpt>
      <trkpt lat="44.52759" lon="6.14809">
        <ele>811</ele>
        <time>2020-10-11T07:39:23Z</time>
      </trkpt>
      <trkpt lat="44.52764" lon="6.14807">
        <ele>812</ele>
        <time>2020-10-11T07:39:32Z</time>
      </trkpt>
      <trkpt lat="44.52768" lon="6.14813">
        <ele>813</ele>
        <time>2020-10-11T07:39:39Z</time>
      </trkpt>
      <trkpt lat="44.52771" lon="6.1482">
        <ele>814</ele>
        <time>2020-10-11T07:39:50Z</time>
      </trkpt>
      <trkpt lat="44.52774" lon="6.14825">
        <ele>814</ele>
        <time>2020-10-11T07:39:53Z</time>
      </trkpt>
      <trkpt lat="44.52777" lon="6.14828">
        <ele>815</ele>
        <time>2020-10-11T07:39:58Z</time>
      </trkpt>
      <trkpt lat="44.52787" lon="6.14833">
        <ele>816</ele>
        <time>2020-10-11T07:40:10Z</time>
      </trkpt>
      <trkpt lat="44.52791" lon="6.14832">
        <ele>816</ele>
        <time>2020-10-11T07:40:19Z</time>
      </trkpt>
      <trkpt lat="44.52795" lon="6.14833">
        <ele>816</ele>
        <time>2020-10-11T07:40:26Z</time>
      </trkpt>
      <trkpt lat="44.528" lon="6.14831">
        <ele>816</ele>
        <time>2020-10-11T07:40:31Z</time>
      </trkpt>
      <trkpt lat="44.52803" lon="6.1483">
        <ele>816</ele>
        <time>2020-10-11T07:40:34Z</time>
      </trkpt>
      <trkpt lat="44.5281" lon="6.1483">
        <ele>816</ele>
        <time>2020-10-11T07:40:40Z</time>
      </trkpt>
      <trkpt lat="44.52822" lon="6.1483">
        <ele>818</ele>
        <time>2020-10-11T07:40:57Z</time>
      </trkpt>
      <trkpt lat="44.52817" lon="6.14829">
        <ele>819</ele>
        <time>2020-10-11T07:41:07Z</time>
      </trkpt>
      <trkpt lat="44.52817" lon="6.14824">
        <ele>819</ele>
        <time>2020-10-11T07:41:14Z</time>
      </trkpt>
      <trkpt lat="44.5282" lon="6.1482">
        <ele>820</ele>
        <time>2020-10-11T07:41:22Z</time>
      </trkpt>
      <trkpt lat="44.52818" lon="6.14816">
        <ele>821</ele>
        <time>2020-10-11T07:41:26Z</time>
      </trkpt>
      <trkpt lat="44.52817" lon="6.14809">
        <ele>823</ele>
        <time>2020-10-11T07:41:38Z</time>
      </trkpt>
      <trkpt lat="44.52821" lon="6.14803">
        <ele>824</ele>
        <time>2020-10-11T07:41:47Z</time>
      </trkpt>
      <trkpt lat="44.52827" lon="6.148">
        <ele>825</ele>
        <time>2020-10-11T07:41:53Z</time>
      </trkpt>
      <trkpt lat="44.5283" lon="6.14796">
        <ele>825</ele>
        <time>2020-10-11T07:41:56Z</time>
      </trkpt>
      <trkpt lat="44.52834" lon="6.1479">
        <ele>826</ele>
        <time>2020-10-11T07:42:01Z</time>
      </trkpt>
      <trkpt lat="44.5284" lon="6.14786">
        <ele>826</ele>
        <time>2020-10-11T07:42:04Z</time>
      </trkpt>
      <trkpt lat="44.52843" lon="6.14779">
        <ele>827</ele>
        <time>2020-10-11T07:42:08Z</time>
      </trkpt>
      <trkpt lat="44.52846" lon="6.14791">
        <ele>827</ele>
        <time>2020-10-11T07:42:14Z</time>
      </trkpt>
      <trkpt lat="44.5285" lon="6.14789">
        <ele>828</ele>
        <time>2020-10-11T07:42:29Z</time>
      </trkpt>
      <trkpt lat="44.52852" lon="6.14785">
        <ele>829</ele>
        <time>2020-10-11T07:42:32Z</time>
      </trkpt>
      <trkpt lat="44.52855" lon="6.14775">
        <ele>830</ele>
        <time>2020-10-11T07:42:45Z</time>
      </trkpt>
      <trkpt lat="44.52854" lon="6.14767">
        <ele>830</ele>
        <time>2020-10-11T07:42:53Z</time>
      </trkpt>
      <trkpt lat="44.52855" lon="6.14762">
        <ele>832</ele>
        <time>2020-10-11T07:43:12Z</time>
      </trkpt>
      <trkpt lat="44.52856" lon="6.14756">
        <ele>833</ele>
        <time>2020-10-11T07:43:17Z</time>
      </trkpt>
      <trkpt lat="44.52861" lon="6.14751">
        <ele>833</ele>
        <time>2020-10-11T07:43:20Z</time>
      </trkpt>
      <trkpt lat="44.52865" lon="6.1475">
        <ele>834</ele>
        <time>2020-10-11T07:43:24Z</time>
      </trkpt>
      <trkpt lat="44.52868" lon="6.14757">
        <ele>834</ele>
        <time>2020-10-11T07:43:26Z</time>
      </trkpt>
      <trkpt lat="44.52869" lon="6.14756">
        <ele>835</ele>
        <time>2020-10-11T07:43:43Z</time>
      </trkpt>
      <trkpt lat="44.52889" lon="6.14759">
        <ele>837</ele>
        <time>2020-10-11T07:44:08Z</time>
      </trkpt>
      <trkpt lat="44.52892" lon="6.14762">
        <ele>838</ele>
        <time>2020-10-11T07:44:18Z</time>
      </trkpt>
      <trkpt lat="44.52894" lon="6.14764">
        <ele>839</ele>
        <time>2020-10-11T07:44:22Z</time>
      </trkpt>
      <trkpt lat="44.52901" lon="6.14769">
        <ele>840</ele>
        <time>2020-10-11T07:44:37Z</time>
      </trkpt>
      <trkpt lat="44.52903" lon="6.14775">
        <ele>841</ele>
        <time>2020-10-11T07:44:42Z</time>
      </trkpt>
      <trkpt lat="44.52904" lon="6.14782">
        <ele>841</ele>
        <time>2020-10-11T07:44:48Z</time>
      </trkpt>
      <trkpt lat="44.52903" lon="6.14787">
        <ele>843</ele>
        <time>2020-10-11T07:45:00Z</time>
      </trkpt>
      <trkpt lat="44.52905" lon="6.14806">
        <ele>843</ele>
        <time>2020-10-11T07:45:05Z</time>
      </trkpt>
      <trkpt lat="44.52906" lon="6.14811">
        <ele>844</ele>
        <time>2020-10-11T07:45:19Z</time>
      </trkpt>
      <trkpt lat="44.52909" lon="6.14812">
        <ele>845</ele>
        <time>2020-10-11T07:45:27Z</time>
      </trkpt>
      <trkpt lat="44.5291" lon="6.14816">
        <ele>845</ele>
        <time>2020-10-11T07:45:32Z</time>
      </trkpt>
      <trkpt lat="44.52918" lon="6.14825">
        <ele>848</ele>
        <time>2020-10-11T07:45:50Z</time>
      </trkpt>
      <trkpt lat="44.52921" lon="6.14832">
        <ele>849</ele>
        <time>2020-10-11T07:46:00Z</time>
      </trkpt>
      <trkpt lat="44.52924" lon="6.14834">
        <ele>850</ele>
        <time>2020-10-11T07:46:23Z</time>
      </trkpt>
      <trkpt lat="44.5293" lon="6.14846">
        <ele>852</ele>
        <time>2020-10-11T07:46:35Z</time>
      </trkpt>
      <trkpt lat="44.5293" lon="6.14853">
        <ele>852</ele>
        <time>2020-10-11T07:46:38Z</time>
      </trkpt>
      <trkpt lat="44.52932" lon="6.14858">
        <ele>853</ele>
        <time>2020-10-11T07:46:41Z</time>
      </trkpt>
      <trkpt lat="44.52934" lon="6.14862">
        <ele>853</ele>
        <time>2020-10-11T07:46:47Z</time>
      </trkpt>
      <trkpt lat="44.52938" lon="6.14862">
        <ele>854</ele>
        <time>2020-10-11T07:46:56Z</time>
      </trkpt>
      <trkpt lat="44.5294" lon="6.14859">
        <ele>855</ele>
        <time>2020-10-11T07:47:01Z</time>
      </trkpt>
      <trkpt lat="44.52941" lon="6.14852">
        <ele>856</ele>
        <time>2020-10-11T07:47:12Z</time>
      </trkpt>
      <trkpt lat="44.52941" lon="6.14825">
        <ele>860</ele>
        <time>2020-10-11T07:47:44Z</time>
      </trkpt>
      <trkpt lat="44.52939" lon="6.14821">
        <ele>861</ele>
        <time>2020-10-11T07:47:50Z</time>
      </trkpt>
      <trkpt lat="44.5294" lon="6.14817">
        <ele>861</ele>
        <time>2020-10-11T07:47:58Z</time>
      </trkpt>
      <trkpt lat="44.52941" lon="6.14812">
        <ele>863</ele>
        <time>2020-10-11T07:48:13Z</time>
      </trkpt>
      <trkpt lat="44.52943" lon="6.14805">
        <ele>864</ele>
        <time>2020-10-11T07:48:21Z</time>
      </trkpt>
      <trkpt lat="44.52941" lon="6.14789">
        <ele>866</ele>
        <time>2020-10-11T07:48:42Z</time>
      </trkpt>
      <trkpt lat="44.52944" lon="6.14789">
        <ele>866</ele>
        <time>2020-10-11T07:48:47Z</time>
      </trkpt>
      <trkpt lat="44.52949" lon="6.14794">
        <ele>868</ele>
        <time>2020-10-11T07:48:55Z</time>
      </trkpt>
      <trkpt lat="44.52952" lon="6.14797">
        <ele>869</ele>
        <time>2020-10-11T07:49:09Z</time>
      </trkpt>
      <trkpt lat="44.52957" lon="6.14803">
        <ele>871</ele>
        <time>2020-10-11T07:49:20Z</time>
      </trkpt>
      <trkpt lat="44.52958" lon="6.14808">
        <ele>872</ele>
        <time>2020-10-11T07:49:33Z</time>
      </trkpt>
      <trkpt lat="44.5296" lon="6.14813">
        <ele>873</ele>
        <time>2020-10-11T07:49:46Z</time>
      </trkpt>
      <trkpt lat="44.52963" lon="6.1482">
        <ele>874</ele>
        <time>2020-10-11T07:49:51Z</time>
      </trkpt>
      <trkpt lat="44.52966" lon="6.14823">
        <ele>875</ele>
        <time>2020-10-11T07:49:58Z</time>
      </trkpt>
      <trkpt lat="44.52969" lon="6.14823">
        <ele>875</ele>
        <time>2020-10-11T07:50:01Z</time>
      </trkpt>
      <trkpt lat="44.52975" lon="6.14822">
        <ele>876</ele>
        <time>2020-10-11T07:50:07Z</time>
      </trkpt>
      <trkpt lat="44.52972" lon="6.14816">
        <ele>877</ele>
        <time>2020-10-11T07:50:12Z</time>
      </trkpt>
      <trkpt lat="44.52971" lon="6.14811">
        <ele>878</ele>
        <time>2020-10-11T07:50:17Z</time>
      </trkpt>
      <trkpt lat="44.52965" lon="6.1481">
        <ele>878</ele>
        <time>2020-10-11T07:50:22Z</time>
      </trkpt>
      <trkpt lat="44.52963" lon="6.14803">
        <ele>879</ele>
        <time>2020-10-11T07:50:30Z</time>
      </trkpt>
      <trkpt lat="44.52964" lon="6.14798">
        <ele>880</ele>
        <time>2020-10-11T07:50:37Z</time>
      </trkpt>
      <trkpt lat="44.52966" lon="6.14794">
        <ele>880</ele>
        <time>2020-10-11T07:50:46Z</time>
      </trkpt>
      <trkpt lat="44.52974" lon="6.14792">
        <ele>881</ele>
        <time>2020-10-11T07:50:51Z</time>
      </trkpt>
      <trkpt lat="44.52969" lon="6.14784">
        <ele>882</ele>
        <time>2020-10-11T07:50:58Z</time>
      </trkpt>
      <trkpt lat="44.52962" lon="6.14787">
        <ele>882</ele>
        <time>2020-10-11T07:51:02Z</time>
      </trkpt>
      <trkpt lat="44.52963" lon="6.14778">
        <ele>885</ele>
        <time>2020-10-11T07:51:23Z</time>
      </trkpt>
      <trkpt lat="44.52968" lon="6.14765">
        <ele>886</ele>
        <time>2020-10-11T07:51:31Z</time>
      </trkpt>
      <trkpt lat="44.52971" lon="6.14761">
        <ele>887</ele>
        <time>2020-10-11T07:51:36Z</time>
      </trkpt>
      <trkpt lat="44.52974" lon="6.14758">
        <ele>888</ele>
        <time>2020-10-11T07:51:49Z</time>
      </trkpt>
      <trkpt lat="44.5298" lon="6.14759">
        <ele>889</ele>
        <time>2020-10-11T07:51:55Z</time>
      </trkpt>
      <trkpt lat="44.52984" lon="6.14766">
        <ele>890</ele>
        <time>2020-10-11T07:52:00Z</time>
      </trkpt>
      <trkpt lat="44.52986" lon="6.14771">
        <ele>891</ele>
        <time>2020-10-11T07:52:09Z</time>
      </trkpt>
      <trkpt lat="44.52989" lon="6.14775">
        <ele>892</ele>
        <time>2020-10-11T07:52:13Z</time>
      </trkpt>
      <trkpt lat="44.52993" lon="6.14777">
        <ele>893</ele>
        <time>2020-10-11T07:52:19Z</time>
      </trkpt>
      <trkpt lat="44.52997" lon="6.14783">
        <ele>893</ele>
        <time>2020-10-11T07:52:25Z</time>
      </trkpt>
      <trkpt lat="44.53" lon="6.14789">
        <ele>895</ele>
        <time>2020-10-11T07:52:45Z</time>
      </trkpt>
      <trkpt lat="44.53001" lon="6.14785">
        <ele>895</ele>
        <time>2020-10-11T07:52:51Z</time>
      </trkpt>
      <trkpt lat="44.52995" lon="6.14785">
        <ele>896</ele>
        <time>2020-10-11T07:52:55Z</time>
      </trkpt>
      <trkpt lat="44.52993" lon="6.14777">
        <ele>896</ele>
        <time>2020-10-11T07:53:04Z</time>
      </trkpt>
      <trkpt lat="44.52986" lon="6.14765">
        <ele>900</ele>
        <time>2020-10-11T07:53:15Z</time>
      </trkpt>
      <trkpt lat="44.52988" lon="6.14755">
        <ele>901</ele>
        <time>2020-10-11T07:53:30Z</time>
      </trkpt>
      <trkpt lat="44.52991" lon="6.1475">
        <ele>902</ele>
        <time>2020-10-11T07:53:34Z</time>
      </trkpt>
      <trkpt lat="44.52995" lon="6.14751">
        <ele>902</ele>
        <time>2020-10-11T07:53:39Z</time>
      </trkpt>
      <trkpt lat="44.53" lon="6.14753">
        <ele>903</ele>
        <time>2020-10-11T07:53:42Z</time>
      </trkpt>
      <trkpt lat="44.53005" lon="6.14756">
        <ele>903</ele>
        <time>2020-10-11T07:53:46Z</time>
      </trkpt>
      <trkpt lat="44.53004" lon="6.14748">
        <ele>905</ele>
        <time>2020-10-11T07:54:01Z</time>
      </trkpt>
      <trkpt lat="44.53002" lon="6.14743">
        <ele>906</ele>
        <time>2020-10-11T07:54:04Z</time>
      </trkpt>
      <trkpt lat="44.52996" lon="6.14738">
        <ele>907</ele>
        <time>2020-10-11T07:54:13Z</time>
      </trkpt>
      <trkpt lat="44.52997" lon="6.14732">
        <ele>908</ele>
        <time>2020-10-11T07:54:17Z</time>
      </trkpt>
      <trkpt lat="44.53003" lon="6.14726">
        <ele>909</ele>
        <time>2020-10-11T07:54:23Z</time>
      </trkpt>
      <trkpt lat="44.53009" lon="6.14727">
        <ele>909</ele>
        <time>2020-10-11T07:54:25Z</time>
      </trkpt>
      <trkpt lat="44.53014" lon="6.14732">
        <ele>909</ele>
        <time>2020-10-11T07:54:27Z</time>
      </trkpt>
      <trkpt lat="44.5302" lon="6.14754">
        <ele>910</ele>
        <time>2020-10-11T07:54:30Z</time>
      </trkpt>
      <trkpt lat="44.53014" lon="6.1476">
        <ele>910</ele>
        <time>2020-10-11T07:54:34Z</time>
      </trkpt>
      <trkpt lat="44.53014" lon="6.14768">
        <ele>910</ele>
        <time>2020-10-11T07:54:36Z</time>
      </trkpt>
      <trkpt lat="44.53017" lon="6.14774">
        <ele>911</ele>
        <time>2020-10-11T07:54:41Z</time>
      </trkpt>
      <trkpt lat="44.53019" lon="6.14773">
        <ele>914</ele>
        <time>2020-10-11T07:55:12Z</time>
      </trkpt>
      <trkpt lat="44.53017" lon="6.14767">
        <ele>915</ele>
        <time>2020-10-11T07:55:16Z</time>
      </trkpt>
      <trkpt lat="44.5302" lon="6.14749">
        <ele>917</ele>
        <time>2020-10-11T07:55:26Z</time>
      </trkpt>
      <trkpt lat="44.53021" lon="6.14745">
        <ele>918</ele>
        <time>2020-10-11T07:55:29Z</time>
      </trkpt>
      <trkpt lat="44.53024" lon="6.14741">
        <ele>918</ele>
        <time>2020-10-11T07:55:37Z</time>
      </trkpt>
      <trkpt lat="44.53029" lon="6.14733">
        <ele>920</ele>
        <time>2020-10-11T07:55:43Z</time>
      </trkpt>
      <trkpt lat="44.53031" lon="6.1473">
        <ele>920</ele>
        <time>2020-10-11T07:55:46Z</time>
      </trkpt>
      <trkpt lat="44.53031" lon="6.14747">
        <ele>921</ele>
        <time>2020-10-11T07:55:54Z</time>
      </trkpt>
      <trkpt lat="44.53031" lon="6.14753">
        <ele>921</ele>
        <time>2020-10-11T07:55:56Z</time>
      </trkpt>
      <trkpt lat="44.53029" lon="6.14757">
        <ele>922</ele>
        <time>2020-10-11T07:55:58Z</time>
      </trkpt>
      <trkpt lat="44.53027" lon="6.14768">
        <ele>923</ele>
        <time>2020-10-11T07:56:06Z</time>
      </trkpt>
      <trkpt lat="44.53029" lon="6.14771">
        <ele>923</ele>
        <time>2020-10-11T07:56:11Z</time>
      </trkpt>
      <trkpt lat="44.53032" lon="6.14778">
        <ele>926</ele>
        <time>2020-10-11T07:56:27Z</time>
      </trkpt>
      <trkpt lat="44.53036" lon="6.14779">
        <ele>927</ele>
        <time>2020-10-11T07:56:33Z</time>
      </trkpt>
      <trkpt lat="44.53038" lon="6.14782">
        <ele>927</ele>
        <time>2020-10-11T07:56:35Z</time>
      </trkpt>
      <trkpt lat="44.53041" lon="6.14797">
        <ele>930</ele>
        <time>2020-10-11T07:56:48Z</time>
      </trkpt>
      <trkpt lat="44.53039" lon="6.14796">
        <ele>932</ele>
        <time>2020-10-11T07:58:08Z</time>
      </trkpt>
      <trkpt lat="44.53038" lon="6.148">
        <ele>932</ele>
        <time>2020-10-11T07:58:16Z</time>
      </trkpt>
      <trkpt lat="44.53035" lon="6.14801">
        <ele>932</ele>
        <time>2020-10-11T07:58:47Z</time>
      </trkpt>
      <trkpt lat="44.53036" lon="6.14791">
        <ele>932</ele>
        <time>2020-10-11T07:59:10Z</time>
      </trkpt>
      <trkpt lat="44.53039" lon="6.14788">
        <ele>932</ele>
        <time>2020-10-11T07:59:35Z</time>
      </trkpt>
      <trkpt lat="44.5305" lon="6.14793">
        <ele>932</ele>
        <time>2020-10-11T07:59:45Z</time>
      </trkpt>
      <trkpt lat="44.53043" lon="6.14807">
        <ele>933</ele>
        <time>2020-10-11T08:00:10Z</time>
      </trkpt>
      <trkpt lat="44.5304" lon="6.14805">
        <ele>932</ele>
        <time>2020-10-11T08:00:43Z</time>
      </trkpt>
      <trkpt lat="44.5304" lon="6.14805">
        <ele>932</ele>
        <time>2020-10-11T08:04:40Z</time>
      </trkpt>
      <trkpt lat="44.5304" lon="6.148">
        <ele>932</ele>
        <time>2020-10-11T08:04:57Z</time>
      </trkpt>
      <trkpt lat="44.5304" lon="6.14794">
        <ele>932</ele>
        <time>2020-10-11T08:05:27Z</time>
      </trkpt>
      <trkpt lat="44.53043" lon="6.14793">
        <ele>932</ele>
        <time>2020-10-11T08:05:29Z</time>
      </trkpt>
      <trkpt lat="44.53044" lon="6.14794">
        <ele>933</ele>
        <time>2020-10-11T08:06:15Z</time>
      </trkpt>
      <trkpt lat="44.53047" lon="6.14794">
        <ele>933</ele>
        <time>2020-10-11T08:06:38Z</time>
      </trkpt>
      <trkpt lat="44.53047" lon="6.148">
        <ele>933</ele>
        <time>2020-10-11T08:06:54Z</time>
      </trkpt>
      <trkpt lat="44.53049" lon="6.14804">
        <ele>933</ele>
        <time>2020-10-11T08:07:13Z</time>
      </trkpt>
      <trkpt lat="44.5306" lon="6.14813">
        <ele>933</ele>
        <time>2020-10-11T08:07:25Z</time>
      </trkpt>
      <trkpt lat="44.53066" lon="6.1482">
        <ele>933</ele>
        <time>2020-10-11T08:07:33Z</time>
      </trkpt>
      <trkpt lat="44.53069" lon="6.14825">
        <ele>933</ele>
        <time>2020-10-11T08:07:37Z</time>
      </trkpt>
      <trkpt lat="44.53073" lon="6.14827">
        <ele>933</ele>
        <time>2020-10-11T08:07:45Z</time>
      </trkpt>
      <trkpt lat="44.53076" lon="6.14828">
        <ele>933</ele>
        <time>2020-10-11T08:07:48Z</time>
      </trkpt>
      <trkpt lat="44.53079" lon="6.1483">
        <ele>933</ele>
        <time>2020-10-11T08:07:52Z</time>
      </trkpt>
      <trkpt lat="44.53086" lon="6.14834">
        <ele>934</ele>
        <time>2020-10-11T08:07:59Z</time>
      </trkpt>
      <trkpt lat="44.5309" lon="6.14838">
        <ele>934</ele>
        <time>2020-10-11T08:08:03Z</time>
      </trkpt>
      <trkpt lat="44.53091" lon="6.14842">
        <ele>934</ele>
        <time>2020-10-11T08:08:07Z</time>
      </trkpt>
      <trkpt lat="44.53095" lon="6.14851">
        <ele>935</ele>
        <time>2020-10-11T08:08:18Z</time>
      </trkpt>
      <trkpt lat="44.5311" lon="6.14874">
        <ele>935</ele>
        <time>2020-10-11T08:08:37Z</time>
      </trkpt>
      <trkpt lat="44.53113" lon="6.14879">
        <ele>935</ele>
        <time>2020-10-11T08:08:42Z</time>
      </trkpt>
      <trkpt lat="44.53116" lon="6.14884">
        <ele>935</ele>
        <time>2020-10-11T08:08:46Z</time>
      </trkpt>
      <trkpt lat="44.53119" lon="6.14902">
        <ele>936</ele>
        <time>2020-10-11T08:08:58Z</time>
      </trkpt>
      <trkpt lat="44.53124" lon="6.14914">
        <ele>937</ele>
        <time>2020-10-11T08:09:10Z</time>
      </trkpt>
      <trkpt lat="44.53128" lon="6.1493">
        <ele>939</ele>
        <time>2020-10-11T08:09:28Z</time>
      </trkpt>
      <trkpt lat="44.53131" lon="6.14945">
        <ele>940</ele>
        <time>2020-10-11T08:09:41Z</time>
      </trkpt>
      <trkpt lat="44.53132" lon="6.14949">
        <ele>940</ele>
        <time>2020-10-11T08:09:43Z</time>
      </trkpt>
      <trkpt lat="44.53134" lon="6.14952">
        <ele>941</ele>
        <time>2020-10-11T08:09:46Z</time>
      </trkpt>
      <trkpt lat="44.53136" lon="6.14957">
        <ele>941</ele>
        <time>2020-10-11T08:09:49Z</time>
      </trkpt>
      <trkpt lat="44.53139" lon="6.14957">
        <ele>941</ele>
        <time>2020-10-11T08:09:51Z</time>
      </trkpt>
      <trkpt lat="44.5314" lon="6.14961">
        <ele>942</ele>
        <time>2020-10-11T08:10:01Z</time>
      </trkpt>
      <trkpt lat="44.53148" lon="6.14967">
        <ele>942</ele>
        <time>2020-10-11T08:10:10Z</time>
      </trkpt>
      <trkpt lat="44.53151" lon="6.14968">
        <ele>942</ele>
        <time>2020-10-11T08:10:14Z</time>
      </trkpt>
      <trkpt lat="44.53154" lon="6.14966">
        <ele>942</ele>
        <time>2020-10-11T08:10:16Z</time>
      </trkpt>
      <trkpt lat="44.53157" lon="6.14962">
        <ele>942</ele>
        <time>2020-10-11T08:10:19Z</time>
      </trkpt>
      <trkpt lat="44.53157" lon="6.14958">
        <ele>942</ele>
        <time>2020-10-11T08:10:22Z</time>
      </trkpt>
      <trkpt lat="44.53156" lon="6.14955">
        <ele>943</ele>
        <time>2020-10-11T08:10:35Z</time>
      </trkpt>
      <trkpt lat="44.53155" lon="6.14951">
        <ele>943</ele>
        <time>2020-10-11T08:11:08Z</time>
      </trkpt>
      <trkpt lat="44.53158" lon="6.14927">
        <ele>944</ele>
        <time>2020-10-11T08:11:36Z</time>
      </trkpt>
      <trkpt lat="44.53158" lon="6.14922">
        <ele>945</ele>
        <time>2020-10-11T08:11:41Z</time>
      </trkpt>
      <trkpt lat="44.5316" lon="6.14913">
        <ele>945</ele>
        <time>2020-10-11T08:11:47Z</time>
      </trkpt>
      <trkpt lat="44.5316" lon="6.14898">
        <ele>946</ele>
        <time>2020-10-11T08:11:57Z</time>
      </trkpt>
      <trkpt lat="44.53161" lon="6.14893">
        <ele>947</ele>
        <time>2020-10-11T08:12:05Z</time>
      </trkpt>
      <trkpt lat="44.5317" lon="6.14873">
        <ele>950</ele>
        <time>2020-10-11T08:12:25Z</time>
      </trkpt>
      <trkpt lat="44.53171" lon="6.14868">
        <ele>951</ele>
        <time>2020-10-11T08:12:30Z</time>
      </trkpt>
      <trkpt lat="44.53172" lon="6.14862">
        <ele>952</ele>
        <time>2020-10-11T08:12:34Z</time>
      </trkpt>
      <trkpt lat="44.53174" lon="6.14857">
        <ele>953</ele>
        <time>2020-10-11T08:13:01Z</time>
      </trkpt>
      <trkpt lat="44.53169" lon="6.14826">
        <ele>957</ele>
        <time>2020-10-11T08:13:33Z</time>
      </trkpt>
      <trkpt lat="44.53168" lon="6.14816">
        <ele>958</ele>
        <time>2020-10-11T08:13:41Z</time>
      </trkpt>
      <trkpt lat="44.53165" lon="6.14807">
        <ele>960</ele>
        <time>2020-10-11T08:13:54Z</time>
      </trkpt>
      <trkpt lat="44.53164" lon="6.14802">
        <ele>961</ele>
        <time>2020-10-11T08:13:58Z</time>
      </trkpt>
      <trkpt lat="44.53162" lon="6.14797">
        <ele>962</ele>
        <time>2020-10-11T08:14:02Z</time>
      </trkpt>
      <trkpt lat="44.53159" lon="6.14794">
        <ele>963</ele>
        <time>2020-10-11T08:14:09Z</time>
      </trkpt>
      <trkpt lat="44.53155" lon="6.14793">
        <ele>963</ele>
        <time>2020-10-11T08:14:18Z</time>
      </trkpt>
      <trkpt lat="44.53152" lon="6.1479">
        <ele>965</ele>
        <time>2020-10-11T08:14:24Z</time>
      </trkpt>
      <trkpt lat="44.5315" lon="6.14787">
        <ele>965</ele>
        <time>2020-10-11T08:14:28Z</time>
      </trkpt>
      <trkpt lat="44.53136" lon="6.14767">
        <ele>968</ele>
        <time>2020-10-11T08:15:20Z</time>
      </trkpt>
      <trkpt lat="44.53137" lon="6.14763">
        <ele>968</ele>
        <time>2020-10-11T08:15:24Z</time>
      </trkpt>
      <trkpt lat="44.53158" lon="6.14734">
        <ele>970</ele>
        <time>2020-10-11T08:15:50Z</time>
      </trkpt>
      <trkpt lat="44.53165" lon="6.14727">
        <ele>970</ele>
        <time>2020-10-11T08:15:55Z</time>
      </trkpt>
      <trkpt lat="44.53172" lon="6.14726">
        <ele>971</ele>
        <time>2020-10-11T08:15:57Z</time>
      </trkpt>
      <trkpt lat="44.53178" lon="6.14726">
        <ele>971</ele>
        <time>2020-10-11T08:16:04Z</time>
      </trkpt>
      <trkpt lat="44.53196" lon="6.14722">
        <ele>973</ele>
        <time>2020-10-11T08:16:33Z</time>
      </trkpt>
      <trkpt lat="44.53205" lon="6.14714">
        <ele>974</ele>
        <time>2020-10-11T08:16:43Z</time>
      </trkpt>
      <trkpt lat="44.53213" lon="6.14707">
        <ele>975</ele>
        <time>2020-10-11T08:16:50Z</time>
      </trkpt>
      <trkpt lat="44.53219" lon="6.14708">
        <ele>976</ele>
        <time>2020-10-11T08:16:55Z</time>
      </trkpt>
      <trkpt lat="44.53223" lon="6.147">
        <ele>976</ele>
        <time>2020-10-11T08:17:00Z</time>
      </trkpt>
      <trkpt lat="44.53234" lon="6.14695">
        <ele>977</ele>
        <time>2020-10-11T08:17:17Z</time>
      </trkpt>
      <trkpt lat="44.53232" lon="6.14712">
        <ele>977</ele>
        <time>2020-10-11T08:17:23Z</time>
      </trkpt>
      <trkpt lat="44.53229" lon="6.14709">
        <ele>977</ele>
        <time>2020-10-11T08:17:28Z</time>
      </trkpt>
      <trkpt lat="44.53227" lon="6.14704">
        <ele>977</ele>
        <time>2020-10-11T08:17:31Z</time>
      </trkpt>
      <trkpt lat="44.53228" lon="6.147">
        <ele>977</ele>
        <time>2020-10-11T08:17:34Z</time>
      </trkpt>
      <trkpt lat="44.53226" lon="6.14695">
        <ele>977</ele>
        <time>2020-10-11T08:17:37Z</time>
      </trkpt>
      <trkpt lat="44.53226" lon="6.14691">
        <ele>977</ele>
        <time>2020-10-11T08:17:40Z</time>
      </trkpt>
      <trkpt lat="44.53227" lon="6.14687">
        <ele>977</ele>
        <time>2020-10-11T08:17:43Z</time>
      </trkpt>
      <trkpt lat="44.53227" lon="6.14683">
        <ele>977</ele>
        <time>2020-10-11T08:17:46Z</time>
      </trkpt>
      <trkpt lat="44.53223" lon="6.14664">
        <ele>976</ele>
        <time>2020-10-11T08:17:59Z</time>
      </trkpt>
      <trkpt lat="44.53221" lon="6.1466">
        <ele>976</ele>
        <time>2020-10-11T08:18:03Z</time>
      </trkpt>
      <trkpt lat="44.5322" lon="6.14656">
        <ele>976</ele>
        <time>2020-10-11T08:18:06Z</time>
      </trkpt>
      <trkpt lat="44.53219" lon="6.14651">
        <ele>976</ele>
        <time>2020-10-11T08:18:10Z</time>
      </trkpt>
      <trkpt lat="44.53215" lon="6.14638">
        <ele>977</ele>
        <time>2020-10-11T08:18:22Z</time>
      </trkpt>
      <trkpt lat="44.53212" lon="6.14631">
        <ele>977</ele>
        <time>2020-10-11T08:18:25Z</time>
      </trkpt>
      <trkpt lat="44.53212" lon="6.14627">
        <ele>977</ele>
        <time>2020-10-11T08:18:29Z</time>
      </trkpt>
      <trkpt lat="44.53211" lon="6.14622">
        <ele>977</ele>
        <time>2020-10-11T08:18:33Z</time>
      </trkpt>
      <trkpt lat="44.53209" lon="6.14619">
        <ele>978</ele>
        <time>2020-10-11T08:18:37Z</time>
      </trkpt>
      <trkpt lat="44.53205" lon="6.14613">
        <ele>979</ele>
        <time>2020-10-11T08:18:43Z</time>
      </trkpt>
      <trkpt lat="44.53204" lon="6.14609">
        <ele>979</ele>
        <time>2020-10-11T08:18:47Z</time>
      </trkpt>
      <trkpt lat="44.532" lon="6.146">
        <ele>979</ele>
        <time>2020-10-11T08:18:53Z</time>
      </trkpt>
      <trkpt lat="44.53195" lon="6.14592">
        <ele>980</ele>
        <time>2020-10-11T08:18:59Z</time>
      </trkpt>
      <trkpt lat="44.5319" lon="6.14586">
        <ele>980</ele>
        <time>2020-10-11T08:19:05Z</time>
      </trkpt>
      <trkpt lat="44.53178" lon="6.14554">
        <ele>981</ele>
        <time>2020-10-11T08:19:29Z</time>
      </trkpt>
      <trkpt lat="44.53177" lon="6.14548">
        <ele>981</ele>
        <time>2020-10-11T08:19:33Z</time>
      </trkpt>
      <trkpt lat="44.53182" lon="6.14524">
        <ele>980</ele>
        <time>2020-10-11T08:19:53Z</time>
      </trkpt>
      <trkpt lat="44.5318" lon="6.14507">
        <ele>840</ele>
        <time>2020-10-11T08:20:08Z</time>
      </trkpt>
      <trkpt lat="44.53178" lon="6.14501">
        <ele>754</ele>
        <time>2020-10-11T08:20:14Z</time>
      </trkpt>
      <trkpt lat="44.53178" lon="6.14496">
        <ele>526</ele>
        <time>2020-10-11T08:20:18Z</time>
      </trkpt>
      <trkpt lat="44.53175" lon="6.14491">
        <ele>86</ele>
        <time>2020-10-11T08:20:23Z</time>
      </trkpt>
      <trkpt lat="44.53175" lon="6.14486">
        <ele>48</ele>
        <time>2020-10-11T08:20:26Z</time>
      </trkpt>
      <trkpt lat="44.53174" lon="6.14481">
        <ele>5</ele>
        <time>2020-10-11T08:20:34Z</time>
      </trkpt>
      <trkpt lat="44.53157" lon="6.14463">
        <ele>1</ele>
        <time>2020-10-11T08:20:46Z</time>
      </trkpt>
      <trkpt lat="44.53155" lon="6.14459">
        <ele>1</ele>
        <time>2020-10-11T08:20:50Z</time>
      </trkpt>
      <trkpt lat="44.53151" lon="6.14456">
        <ele>1</ele>
        <time>2020-10-11T08:20:54Z</time>
      </trkpt>
      <trkpt lat="44.53137" lon="6.14438">
        <ele>3</ele>
        <time>2020-10-11T08:21:16Z</time>
      </trkpt>
      <trkpt lat="44.53134" lon="6.14434">
        <ele>3</ele>
        <time>2020-10-11T08:21:21Z</time>
      </trkpt>
      <trkpt lat="44.53116" lon="6.14411">
        <ele>5</ele>
        <time>2020-10-11T08:21:53Z</time>
      </trkpt>
      <trkpt lat="44.53111" lon="6.14403">
        <ele>6</ele>
        <time>2020-10-11T08:22:03Z</time>
      </trkpt>
      <trkpt lat="44.53103" lon="6.14392">
        <ele>7</ele>
        <time>2020-10-11T08:22:15Z</time>
      </trkpt>
      <trkpt lat="44.53096" lon="6.1438">
        <ele>8</ele>
        <time>2020-10-11T08:22:29Z</time>
      </trkpt>
      <trkpt lat="44.53094" lon="6.14377">
        <ele>8</ele>
        <time>2020-10-11T08:22:36Z</time>
      </trkpt>
      <trkpt lat="44.53077" lon="6.14354">
        <ele>9</ele>
        <time>2020-10-11T08:22:59Z</time>
      </trkpt>
      <trkpt lat="44.53071" lon="6.14346">
        <ele>10</ele>
        <time>2020-10-11T08:23:14Z</time>
      </trkpt>
      <trkpt lat="44.53059" lon="6.14338">
        <ele>13</ele>
        <time>2020-10-11T08:23:30Z</time>
      </trkpt>
      <trkpt lat="44.53048" lon="6.14338">
        <ele>13</ele>
        <time>2020-10-11T08:23:42Z</time>
      </trkpt>
      <trkpt lat="44.53042" lon="6.14334">
        <ele>14</ele>
        <time>2020-10-11T08:23:45Z</time>
      </trkpt>
      <trkpt lat="44.53037" lon="6.14332">
        <ele>14</ele>
        <time>2020-10-11T08:23:48Z</time>
      </trkpt>
      <trkpt lat="44.53032" lon="6.14334">
        <ele>15</ele>
        <time>2020-10-11T08:23:52Z</time>
      </trkpt>
      <trkpt lat="44.53026" lon="6.14335">
        <ele>16</ele>
        <time>2020-10-11T08:24:03Z</time>
      </trkpt>
      <trkpt lat="44.53014" lon="6.14338">
        <ele>18</ele>
        <time>2020-10-11T08:24:21Z</time>
      </trkpt>
      <trkpt lat="44.5301" lon="6.14336">
        <ele>18</ele>
        <time>2020-10-11T08:24:40Z</time>
      </trkpt>
      <trkpt lat="44.53007" lon="6.14331">
        <ele>19</ele>
        <time>2020-10-11T08:24:43Z</time>
      </trkpt>
      <trkpt lat="44.52998" lon="6.14316">
        <ele>20</ele>
        <time>2020-10-11T08:24:53Z</time>
      </trkpt>
      <trkpt lat="44.52993" lon="6.14308">
        <ele>20</ele>
        <time>2020-10-11T08:24:57Z</time>
      </trkpt>
      <trkpt lat="44.5299" lon="6.14301">
        <ele>20</ele>
        <time>2020-10-11T08:25:01Z</time>
      </trkpt>
      <trkpt lat="44.52986" lon="6.14288">
        <ele>20</ele>
        <time>2020-10-11T08:25:08Z</time>
      </trkpt>
      <trkpt lat="44.52981" lon="6.14254">
        <ele>22</ele>
        <time>2020-10-11T08:25:29Z</time>
      </trkpt>
      <trkpt lat="44.52984" lon="6.1425">
        <ele>23</ele>
        <time>2020-10-11T08:25:49Z</time>
      </trkpt>
      <trkpt lat="44.52986" lon="6.14246">
        <ele>23</ele>
        <time>2020-10-11T08:25:56Z</time>
      </trkpt>
      <trkpt lat="44.52984" lon="6.1424">
        <ele>23</ele>
        <time>2020-10-11T08:26:01Z</time>
      </trkpt>
      <trkpt lat="44.52984" lon="6.14234">
        <ele>23</ele>
        <time>2020-10-11T08:26:05Z</time>
      </trkpt>
      <trkpt lat="44.52986" lon="6.14224">
        <ele>24</ele>
        <time>2020-10-11T08:26:14Z</time>
      </trkpt>
      <trkpt lat="44.52985" lon="6.14216">
        <ele>25</ele>
        <time>2020-10-11T08:26:18Z</time>
      </trkpt>
      <trkpt lat="44.52987" lon="6.1421">
        <ele>25</ele>
        <time>2020-10-11T08:26:22Z</time>
      </trkpt>
      <trkpt lat="44.52987" lon="6.14206">
        <ele>25</ele>
        <time>2020-10-11T08:26:24Z</time>
      </trkpt>
      <trkpt lat="44.52982" lon="6.14193">
        <ele>26</ele>
        <time>2020-10-11T08:26:38Z</time>
      </trkpt>
      <trkpt lat="44.52981" lon="6.1419">
        <ele>26</ele>
        <time>2020-10-11T08:26:41Z</time>
      </trkpt>
      <trkpt lat="44.52976" lon="6.14186">
        <ele>27</ele>
        <time>2020-10-11T08:26:47Z</time>
      </trkpt>
      <trkpt lat="44.5297" lon="6.14179">
        <ele>28</ele>
        <time>2020-10-11T08:26:56Z</time>
      </trkpt>
      <trkpt lat="44.52954" lon="6.14173">
        <ele>30</ele>
        <time>2020-10-11T08:27:23Z</time>
      </trkpt>
      <trkpt lat="44.5295" lon="6.14171">
        <ele>30</ele>
        <time>2020-10-11T08:27:38Z</time>
      </trkpt>
      <trkpt lat="44.52913" lon="6.14165">
        <ele>31</ele>
        <time>2020-10-11T08:28:08Z</time>
      </trkpt>
      <trkpt lat="44.52896" lon="6.14157">
        <ele>32</ele>
        <time>2020-10-11T08:28:40Z</time>
      </trkpt>
      <trkpt lat="44.52892" lon="6.14158">
        <ele>32</ele>
        <time>2020-10-11T08:28:45Z</time>
      </trkpt>
      <trkpt lat="44.52891" lon="6.14164">
        <ele>33</ele>
        <time>2020-10-11T08:28:54Z</time>
      </trkpt>
      <trkpt lat="44.52885" lon="6.14166">
        <ele>33</ele>
        <time>2020-10-11T08:29:01Z</time>
      </trkpt>
      <trkpt lat="44.52879" lon="6.14168">
        <ele>34</ele>
        <time>2020-10-11T08:29:06Z</time>
      </trkpt>
      <trkpt lat="44.52875" lon="6.14167">
        <ele>34</ele>
        <time>2020-10-11T08:29:10Z</time>
      </trkpt>
      <trkpt lat="44.52871" lon="6.14169">
        <ele>35</ele>
        <time>2020-10-11T08:29:21Z</time>
      </trkpt>
      <trkpt lat="44.52863" lon="6.14172">
        <ele>37</ele>
        <time>2020-10-11T08:29:33Z</time>
      </trkpt>
      <trkpt lat="44.5286" lon="6.14171">
        <ele>37</ele>
        <time>2020-10-11T08:29:38Z</time>
      </trkpt>
      <trkpt lat="44.52856" lon="6.14175">
        <ele>38</ele>
        <time>2020-10-11T08:29:48Z</time>
      </trkpt>
      <trkpt lat="44.5285" lon="6.14175">
        <ele>39</ele>
        <time>2020-10-11T08:30:04Z</time>
      </trkpt>
      <trkpt lat="44.52843" lon="6.14178">
        <ele>42</ele>
        <time>2020-10-11T08:30:29Z</time>
      </trkpt>
      <trkpt lat="44.52835" lon="6.14176">
        <ele>43</ele>
        <time>2020-10-11T08:30:38Z</time>
      </trkpt>
      <trkpt lat="44.52832" lon="6.14173">
        <ele>44</ele>
        <time>2020-10-11T08:30:42Z</time>
      </trkpt>
      <trkpt lat="44.52813" lon="6.14165">
        <ele>48</ele>
        <time>2020-10-11T08:31:19Z</time>
      </trkpt>
      <trkpt lat="44.52801" lon="6.14166">
        <ele>49</ele>
        <time>2020-10-11T08:31:31Z</time>
      </trkpt>
      <trkpt lat="44.52793" lon="6.14169">
        <ele>49</ele>
        <time>2020-10-11T08:31:37Z</time>
      </trkpt>
      <trkpt lat="44.5279" lon="6.1417">
        <ele>50</ele>
        <time>2020-10-11T08:31:43Z</time>
      </trkpt>
      <trkpt lat="44.52786" lon="6.14171">
        <ele>51</ele>
        <time>2020-10-11T08:31:51Z</time>
      </trkpt>
      <trkpt lat="44.5277" lon="6.14175">
        <ele>55</ele>
        <time>2020-10-11T08:32:23Z</time>
      </trkpt>
      <trkpt lat="44.52766" lon="6.1417">
        <ele>57</ele>
        <time>2020-10-11T08:32:35Z</time>
      </trkpt>
      <trkpt lat="44.5276" lon="6.14153">
        <ele>59</ele>
        <time>2020-10-11T08:32:44Z</time>
      </trkpt>
      <trkpt lat="44.52759" lon="6.1415">
        <ele>59</ele>
        <time>2020-10-11T08:32:48Z</time>
      </trkpt>
      <trkpt lat="44.52751" lon="6.14144">
        <ele>60</ele>
        <time>2020-10-11T08:32:57Z</time>
      </trkpt>
      <trkpt lat="44.52748" lon="6.14135">
        <ele>61</ele>
        <time>2020-10-11T08:33:04Z</time>
      </trkpt>
      <trkpt lat="44.52744" lon="6.14126">
        <ele>63</ele>
        <time>2020-10-11T08:33:12Z</time>
      </trkpt>
      <trkpt lat="44.52738" lon="6.14122">
        <ele>64</ele>
        <time>2020-10-11T08:33:18Z</time>
      </trkpt>
      <trkpt lat="44.52728" lon="6.14115">
        <ele>65</ele>
        <time>2020-10-11T08:33:28Z</time>
      </trkpt>
      <trkpt lat="44.52727" lon="6.14118">
        <ele>68</ele>
        <time>2020-10-11T08:34:53Z</time>
      </trkpt>
      <trkpt lat="44.52727" lon="6.14115">
        <ele>68</ele>
        <time>2020-10-11T08:35:12Z</time>
      </trkpt>
      <trkpt lat="44.52726" lon="6.1411">
        <ele>68</ele>
        <time>2020-10-11T08:35:14Z</time>
      </trkpt>
      <trkpt lat="44.52723" lon="6.14099">
        <ele>69</ele>
        <time>2020-10-11T08:35:20Z</time>
      </trkpt>
      <trkpt lat="44.52721" lon="6.14078">
        <ele>70</ele>
        <time>2020-10-11T08:35:39Z</time>
      </trkpt>
      <trkpt lat="44.52721" lon="6.14072">
        <ele>71</ele>
        <time>2020-10-11T08:35:44Z</time>
      </trkpt>
      <trkpt lat="44.5272" lon="6.14069">
        <ele>72</ele>
        <time>2020-10-11T08:35:46Z</time>
      </trkpt>
      <trkpt lat="44.52717" lon="6.14061">
        <ele>73</ele>
        <time>2020-10-11T08:35:57Z</time>
      </trkpt>
      <trkpt lat="44.52714" lon="6.14057">
        <ele>74</ele>
        <time>2020-10-11T08:36:02Z</time>
      </trkpt>
      <trkpt lat="44.52712" lon="6.14053">
        <ele>74</ele>
        <time>2020-10-11T08:36:08Z</time>
      </trkpt>
      <trkpt lat="44.5271" lon="6.14044">
        <ele>75</ele>
        <time>2020-10-11T08:36:17Z</time>
      </trkpt>
      <trkpt lat="44.52709" lon="6.14039">
        <ele>76</ele>
        <time>2020-10-11T08:36:21Z</time>
      </trkpt>
      <trkpt lat="44.5271" lon="6.14035">
        <ele>77</ele>
        <time>2020-10-11T08:36:30Z</time>
      </trkpt>
      <trkpt lat="44.52712" lon="6.14032">
        <ele>78</ele>
        <time>2020-10-11T08:36:35Z</time>
      </trkpt>
      <trkpt lat="44.52709" lon="6.14024">
        <ele>79</ele>
        <time>2020-10-11T08:36:42Z</time>
      </trkpt>
      <trkpt lat="44.52708" lon="6.14021">
        <ele>80</ele>
        <time>2020-10-11T08:36:50Z</time>
      </trkpt>
      <trkpt lat="44.52703" lon="6.14016">
        <ele>81</ele>
        <time>2020-10-11T08:37:12Z</time>
      </trkpt>
      <trkpt lat="44.52701" lon="6.14011">
        <ele>81</ele>
        <time>2020-10-11T08:37:17Z</time>
      </trkpt>
      <trkpt lat="44.52689" lon="6.13989">
        <ele>81</ele>
        <time>2020-10-11T08:37:38Z</time>
      </trkpt>
      <trkpt lat="44.52687" lon="6.13986">
        <ele>81</ele>
        <time>2020-10-11T08:37:42Z</time>
      </trkpt>
      <trkpt lat="44.52686" lon="6.13982">
        <ele>81</ele>
        <time>2020-10-11T08:37:46Z</time>
      </trkpt>
      <trkpt lat="44.52677" lon="6.13968">
        <ele>81</ele>
        <time>2020-10-11T08:38:05Z</time>
      </trkpt>
      <trkpt lat="44.52669" lon="6.13954">
        <ele>81</ele>
        <time>2020-10-11T08:38:17Z</time>
      </trkpt>
      <trkpt lat="44.52667" lon="6.13951">
        <ele>82</ele>
        <time>2020-10-11T08:38:20Z</time>
      </trkpt>
      <trkpt lat="44.52663" lon="6.1395">
        <ele>82</ele>
        <time>2020-10-11T08:38:24Z</time>
      </trkpt>
      <trkpt lat="44.5266" lon="6.13947">
        <ele>82</ele>
        <time>2020-10-11T08:38:30Z</time>
      </trkpt>
      <trkpt lat="44.52652" lon="6.13923">
        <ele>84</ele>
        <time>2020-10-11T08:38:49Z</time>
      </trkpt>
      <trkpt lat="44.52646" lon="6.13915">
        <ele>84</ele>
        <time>2020-10-11T08:39:03Z</time>
      </trkpt>
      <trkpt lat="44.52641" lon="6.13904">
        <ele>85</ele>
        <time>2020-10-11T08:39:09Z</time>
      </trkpt>
      <trkpt lat="44.52636" lon="6.13887">
        <ele>85</ele>
        <time>2020-10-11T08:39:20Z</time>
      </trkpt>
      <trkpt lat="44.52636" lon="6.13872">
        <ele>84</ele>
        <time>2020-10-11T08:39:41Z</time>
      </trkpt>
      <trkpt lat="44.52633" lon="6.13864">
        <ele>84</ele>
        <time>2020-10-11T08:39:52Z</time>
      </trkpt>
      <trkpt lat="44.52632" lon="6.13854">
        <ele>84</ele>
        <time>2020-10-11T08:39:58Z</time>
      </trkpt>
      <trkpt lat="44.52624" lon="6.1383">
        <ele>83</ele>
        <time>2020-10-11T08:40:18Z</time>
      </trkpt>
      <trkpt lat="44.52616" lon="6.13818">
        <ele>80</ele>
        <time>2020-10-11T08:40:34Z</time>
      </trkpt>
      <trkpt lat="44.52607" lon="6.13807">
        <ele>79</ele>
        <time>2020-10-11T08:40:51Z</time>
      </trkpt>
      <trkpt lat="44.52605" lon="6.13802">
        <ele>78</ele>
        <time>2020-10-11T08:40:57Z</time>
      </trkpt>
      <trkpt lat="44.52601" lon="6.13799">
        <ele>78</ele>
        <time>2020-10-11T08:41:02Z</time>
      </trkpt>
      <trkpt lat="44.52598" lon="6.13797">
        <ele>78</ele>
        <time>2020-10-11T08:41:05Z</time>
      </trkpt>
      <trkpt lat="44.52594" lon="6.13793">
        <ele>78</ele>
        <time>2020-10-11T08:41:09Z</time>
      </trkpt>
      <trkpt lat="44.52591" lon="6.1379">
        <ele>78</ele>
        <time>2020-10-11T08:41:13Z</time>
      </trkpt>
      <trkpt lat="44.52584" lon="6.13788">
        <ele>78</ele>
        <time>2020-10-11T08:41:21Z</time>
      </trkpt>
      <trkpt lat="44.52581" lon="6.13784">
        <ele>78</ele>
        <time>2020-10-11T08:41:31Z</time>
      </trkpt>
      <trkpt lat="44.52561" lon="6.13772">
        <ele>78</ele>
        <time>2020-10-11T08:41:45Z</time>
      </trkpt>
      <trkpt lat="44.52557" lon="6.13769">
        <ele>78</ele>
        <time>2020-10-11T08:41:50Z</time>
      </trkpt>
      <trkpt lat="44.52554" lon="6.13769">
        <ele>79</ele>
        <time>2020-10-11T08:41:54Z</time>
      </trkpt>
      <trkpt lat="44.52536" lon="6.13765">
        <ele>79</ele>
        <time>2020-10-11T08:42:09Z</time>
      </trkpt>
      <trkpt lat="44.52528" lon="6.13767">
        <ele>80</ele>
        <time>2020-10-11T08:42:18Z</time>
      </trkpt>
      <trkpt lat="44.52524" lon="6.13766">
        <ele>81</ele>
        <time>2020-10-11T08:42:26Z</time>
      </trkpt>
      <trkpt lat="44.52519" lon="6.13767">
        <ele>81</ele>
        <time>2020-10-11T08:42:29Z</time>
      </trkpt>
      <trkpt lat="44.52515" lon="6.13768">
        <ele>81</ele>
        <time>2020-10-11T08:42:32Z</time>
      </trkpt>
      <trkpt lat="44.52512" lon="6.13767">
        <ele>82</ele>
        <time>2020-10-11T08:42:35Z</time>
      </trkpt>
      <trkpt lat="44.52508" lon="6.13767">
        <ele>82</ele>
        <time>2020-10-11T08:42:40Z</time>
      </trkpt>
      <trkpt lat="44.52505" lon="6.13767">
        <ele>83</ele>
        <time>2020-10-11T08:42:53Z</time>
      </trkpt>
      <trkpt lat="44.52503" lon="6.13765">
        <ele>83</ele>
        <time>2020-10-11T08:42:57Z</time>
      </trkpt>
      <trkpt lat="44.525" lon="6.13762">
        <ele>84</ele>
        <time>2020-10-11T08:43:01Z</time>
      </trkpt>
      <trkpt lat="44.52498" lon="6.13757">
        <ele>84</ele>
        <time>2020-10-11T08:43:07Z</time>
      </trkpt>
      <trkpt lat="44.52495" lon="6.13752">
        <ele>86</ele>
        <time>2020-10-11T08:43:13Z</time>
      </trkpt>
      <trkpt lat="44.52485" lon="6.13748">
        <ele>88</ele>
        <time>2020-10-11T08:43:29Z</time>
      </trkpt>
      <trkpt lat="44.52481" lon="6.13746">
        <ele>89</ele>
        <time>2020-10-11T08:43:37Z</time>
      </trkpt>
      <trkpt lat="44.52477" lon="6.13746">
        <ele>90</ele>
        <time>2020-10-11T08:43:41Z</time>
      </trkpt>
      <trkpt lat="44.52473" lon="6.13743">
        <ele>90</ele>
        <time>2020-10-11T08:43:44Z</time>
      </trkpt>
      <trkpt lat="44.52462" lon="6.13743">
        <ele>91</ele>
        <time>2020-10-11T08:43:48Z</time>
      </trkpt>
      <trkpt lat="44.52457" lon="6.13743">
        <ele>91</ele>
        <time>2020-10-11T08:43:51Z</time>
      </trkpt>
      <trkpt lat="44.52449" lon="6.13737">
        <ele>92</ele>
        <time>2020-10-11T08:43:56Z</time>
      </trkpt>
      <trkpt lat="44.52445" lon="6.13735">
        <ele>92</ele>
        <time>2020-10-11T08:43:59Z</time>
      </trkpt>
      <trkpt lat="44.52441" lon="6.13728">
        <ele>93</ele>
        <time>2020-10-11T08:44:04Z</time>
      </trkpt>
      <trkpt lat="44.5244" lon="6.13727">
        <ele>94</ele>
        <time>2020-10-11T08:44:40Z</time>
      </trkpt>
      <trkpt lat="44.5243" lon="6.13723">
        <ele>96</ele>
        <time>2020-10-11T08:45:05Z</time>
      </trkpt>
      <trkpt lat="44.52423" lon="6.13708">
        <ele>98</ele>
        <time>2020-10-11T08:45:20Z</time>
      </trkpt>
      <trkpt lat="44.52423" lon="6.13703">
        <ele>99</ele>
        <time>2020-10-11T08:45:25Z</time>
      </trkpt>
      <trkpt lat="44.52424" lon="6.13698">
        <ele>99</ele>
        <time>2020-10-11T08:45:30Z</time>
      </trkpt>
      <trkpt lat="44.5243" lon="6.13689">
        <ele>101</ele>
        <time>2020-10-11T08:45:45Z</time>
      </trkpt>
      <trkpt lat="44.52431" lon="6.13685">
        <ele>102</ele>
        <time>2020-10-11T08:45:50Z</time>
      </trkpt>
      <trkpt lat="44.52433" lon="6.13679">
        <ele>102</ele>
        <time>2020-10-11T08:45:56Z</time>
      </trkpt>
      <trkpt lat="44.52434" lon="6.13674">
        <ele>103</ele>
        <time>2020-10-11T08:46:02Z</time>
      </trkpt>
      <trkpt lat="44.52435" lon="6.13667">
        <ele>103</ele>
        <time>2020-10-11T08:46:05Z</time>
      </trkpt>
      <trkpt lat="44.52436" lon="6.13663">
        <ele>104</ele>
        <time>2020-10-11T08:46:08Z</time>
      </trkpt>
      <trkpt lat="44.52429" lon="6.13654">
        <ele>105</ele>
        <time>2020-10-11T08:46:24Z</time>
      </trkpt>
      <trkpt lat="44.52418" lon="6.13628">
        <ele>109</ele>
        <time>2020-10-11T08:46:49Z</time>
      </trkpt>
      <trkpt lat="44.52412" lon="6.13621">
        <ele>110</ele>
        <time>2020-10-11T08:46:57Z</time>
      </trkpt>
      <trkpt lat="44.52412" lon="6.13611">
        <ele>112</ele>
        <time>2020-10-11T08:47:08Z</time>
      </trkpt>
      <trkpt lat="44.52414" lon="6.13602">
        <ele>114</ele>
        <time>2020-10-11T08:47:19Z</time>
      </trkpt>
      <trkpt lat="44.52424" lon="6.13607">
        <ele>116</ele>
        <time>2020-10-11T08:47:37Z</time>
      </trkpt>
      <trkpt lat="44.52423" lon="6.1361">
        <ele>117</ele>
        <time>2020-10-11T08:49:27Z</time>
      </trkpt>
      <trkpt lat="44.52418" lon="6.13615">
        <ele>117</ele>
        <time>2020-10-11T08:49:34Z</time>
      </trkpt>
      <trkpt lat="44.52406" lon="6.13647">
        <ele>115</ele>
        <time>2020-10-11T08:50:04Z</time>
      </trkpt>
      <trkpt lat="44.52404" lon="6.13655">
        <ele>115</ele>
        <time>2020-10-11T08:50:11Z</time>
      </trkpt>
      <trkpt lat="44.52395" lon="6.13665">
        <ele>115</ele>
        <time>2020-10-11T08:50:26Z</time>
      </trkpt>
      <trkpt lat="44.52391" lon="6.1367">
        <ele>115</ele>
        <time>2020-10-11T08:50:32Z</time>
      </trkpt>
      <trkpt lat="44.52388" lon="6.13677">
        <ele>115</ele>
        <time>2020-10-11T08:50:42Z</time>
      </trkpt>
      <trkpt lat="44.52382" lon="6.13693">
        <ele>116</ele>
        <time>2020-10-11T08:50:55Z</time>
      </trkpt>
      <trkpt lat="44.52374" lon="6.13706">
        <ele>116</ele>
        <time>2020-10-11T08:51:05Z</time>
      </trkpt>
      <trkpt lat="44.52371" lon="6.1371">
        <ele>116</ele>
        <time>2020-10-11T08:51:17Z</time>
      </trkpt>
      <trkpt lat="44.52368" lon="6.13716">
        <ele>116</ele>
        <time>2020-10-11T08:51:21Z</time>
      </trkpt>
      <trkpt lat="44.52356" lon="6.13743">
        <ele>116</ele>
        <time>2020-10-11T08:51:45Z</time>
      </trkpt>
      <trkpt lat="44.52352" lon="6.13749">
        <ele>117</ele>
        <time>2020-10-11T08:51:56Z</time>
      </trkpt>
      <trkpt lat="44.52349" lon="6.13752">
        <ele>117</ele>
        <time>2020-10-11T08:51:59Z</time>
      </trkpt>
      <trkpt lat="44.52347" lon="6.13757">
        <ele>117</ele>
        <time>2020-10-11T08:52:02Z</time>
      </trkpt>
      <trkpt lat="44.52344" lon="6.1376">
        <ele>117</ele>
        <time>2020-10-11T08:52:05Z</time>
      </trkpt>
      <trkpt lat="44.52344" lon="6.13767">
        <ele>117</ele>
        <time>2020-10-11T08:52:17Z</time>
      </trkpt>
      <trkpt lat="44.5234" lon="6.13779">
        <ele>117</ele>
        <time>2020-10-11T08:52:27Z</time>
      </trkpt>
      <trkpt lat="44.52338" lon="6.13783">
        <ele>117</ele>
        <time>2020-10-11T08:52:30Z</time>
      </trkpt>
      <trkpt lat="44.52334" lon="6.1379">
        <ele>117</ele>
        <time>2020-10-11T08:52:37Z</time>
      </trkpt>
      <trkpt lat="44.52329" lon="6.13802">
        <ele>116</ele>
        <time>2020-10-11T08:52:46Z</time>
      </trkpt>
      <trkpt lat="44.52325" lon="6.13814">
        <ele>116</ele>
        <time>2020-10-11T08:52:56Z</time>
      </trkpt>
      <trkpt lat="44.52323" lon="6.13823">
        <ele>115</ele>
        <time>2020-10-11T08:53:04Z</time>
      </trkpt>
      <trkpt lat="44.52321" lon="6.13826">
        <ele>115</ele>
        <time>2020-10-11T08:53:08Z</time>
      </trkpt>
      <trkpt lat="44.52308" lon="6.1386">
        <ele>116</ele>
        <time>2020-10-11T08:53:37Z</time>
      </trkpt>
      <trkpt lat="44.52304" lon="6.13861">
        <ele>116</ele>
        <time>2020-10-11T08:53:43Z</time>
      </trkpt>
      <trkpt lat="44.52296" lon="6.13892">
        <ele>114</ele>
        <time>2020-10-11T08:54:05Z</time>
      </trkpt>
      <trkpt lat="44.52293" lon="6.13893">
        <ele>114</ele>
        <time>2020-10-11T08:54:20Z</time>
      </trkpt>
      <trkpt lat="44.52295" lon="6.13894">
        <ele>113</ele>
        <time>2020-10-11T08:54:55Z</time>
      </trkpt>
      <trkpt lat="44.52296" lon="6.13899">
        <ele>113</ele>
        <time>2020-10-11T08:55:00Z</time>
      </trkpt>
      <trkpt lat="44.52297" lon="6.13905">
        <ele>113</ele>
        <time>2020-10-11T08:55:05Z</time>
      </trkpt>
      <trkpt lat="44.52295" lon="6.13918">
        <ele>111</ele>
        <time>2020-10-11T08:55:33Z</time>
      </trkpt>
      <trkpt lat="44.52294" lon="6.13921">
        <ele>111</ele>
        <time>2020-10-11T08:55:37Z</time>
      </trkpt>
      <trkpt lat="44.52292" lon="6.13924">
        <ele>110</ele>
        <time>2020-10-11T08:56:10Z</time>
      </trkpt>
      <trkpt lat="44.52293" lon="6.13929">
        <ele>111</ele>
        <time>2020-10-11T08:56:15Z</time>
      </trkpt>
      <trkpt lat="44.52296" lon="6.13945">
        <ele>110</ele>
        <time>2020-10-11T08:56:45Z</time>
      </trkpt>
      <trkpt lat="44.52297" lon="6.1395">
        <ele>110</ele>
        <time>2020-10-11T08:56:48Z</time>
      </trkpt>
      <trkpt lat="44.52295" lon="6.13963">
        <ele>108</ele>
        <time>2020-10-11T08:56:58Z</time>
      </trkpt>
      <trkpt lat="44.52294" lon="6.13968">
        <ele>108</ele>
        <time>2020-10-11T08:57:02Z</time>
      </trkpt>
      <trkpt lat="44.52292" lon="6.13972">
        <ele>107</ele>
        <time>2020-10-11T08:57:07Z</time>
      </trkpt>
      <trkpt lat="44.52293" lon="6.13976">
        <ele>107</ele>
        <time>2020-10-11T08:57:10Z</time>
      </trkpt>
      <trkpt lat="44.52293" lon="6.1398">
        <ele>107</ele>
        <time>2020-10-11T08:57:14Z</time>
      </trkpt>
      <trkpt lat="44.52291" lon="6.13985">
        <ele>107</ele>
        <time>2020-10-11T08:57:18Z</time>
      </trkpt>
      <trkpt lat="44.5228" lon="6.14001">
        <ele>106</ele>
        <time>2020-10-11T08:57:36Z</time>
      </trkpt>
      <trkpt lat="44.52278" lon="6.14003">
        <ele>106</ele>
        <time>2020-10-11T08:57:39Z</time>
      </trkpt>
      <trkpt lat="44.52276" lon="6.14005">
        <ele>106</ele>
        <time>2020-10-11T08:57:42Z</time>
      </trkpt>
      <trkpt lat="44.52268" lon="6.14017">
        <ele>104</ele>
        <time>2020-10-11T08:57:57Z</time>
      </trkpt>
      <trkpt lat="44.52261" lon="6.14028">
        <ele>103</ele>
        <time>2020-10-11T08:58:09Z</time>
      </trkpt>
      <trkpt lat="44.52254" lon="6.14035">
        <ele>101</ele>
        <time>2020-10-11T08:58:33Z</time>
      </trkpt>
      <trkpt lat="44.52251" lon="6.14038">
        <ele>100</ele>
        <time>2020-10-11T08:58:38Z</time>
      </trkpt>
      <trkpt lat="44.52247" lon="6.14042">
        <ele>100</ele>
        <time>2020-10-11T08:58:44Z</time>
      </trkpt>
      <trkpt lat="44.52244" lon="6.14046">
        <ele>100</ele>
        <time>2020-10-11T08:58:56Z</time>
      </trkpt>
      <trkpt lat="44.52242" lon="6.14049">
        <ele>99</ele>
        <time>2020-10-11T08:59:00Z</time>
      </trkpt>
      <trkpt lat="44.52239" lon="6.14053">
        <ele>98</ele>
        <time>2020-10-11T08:59:05Z</time>
      </trkpt>
      <trkpt lat="44.52238" lon="6.14057">
        <ele>98</ele>
        <time>2020-10-11T08:59:11Z</time>
      </trkpt>
      <trkpt lat="44.52235" lon="6.14061">
        <ele>97</ele>
        <time>2020-10-11T08:59:22Z</time>
      </trkpt>
      <trkpt lat="44.52232" lon="6.14062">
        <ele>96</ele>
        <time>2020-10-11T08:59:27Z</time>
      </trkpt>
      <trkpt lat="44.52229" lon="6.14064">
        <ele>95</ele>
        <time>2020-10-11T08:59:37Z</time>
      </trkpt>
      <trkpt lat="44.52226" lon="6.14067">
        <ele>94</ele>
        <time>2020-10-11T08:59:41Z</time>
      </trkpt>
      <trkpt lat="44.52224" lon="6.14071">
        <ele>93</ele>
        <time>2020-10-11T08:59:47Z</time>
      </trkpt>
      <trkpt lat="44.52224" lon="6.14075">
        <ele>92</ele>
        <time>2020-10-11T08:59:56Z</time>
      </trkpt>
      <trkpt lat="44.52223" lon="6.14079">
        <ele>91</ele>
        <time>2020-10-11T09:00:00Z</time>
      </trkpt>
      <trkpt lat="44.52221" lon="6.14082">
        <ele>91</ele>
        <time>2020-10-11T09:00:03Z</time>
      </trkpt>
      <trkpt lat="44.5222" lon="6.14087">
        <ele>90</ele>
        <time>2020-10-11T09:01:01Z</time>
      </trkpt>
      <trkpt lat="44.52212" lon="6.14089">
        <ele>88</ele>
        <time>2020-10-11T09:01:31Z</time>
      </trkpt>
      <trkpt lat="44.52211" lon="6.14093">
        <ele>86</ele>
        <time>2020-10-11T09:02:02Z</time>
      </trkpt>
      <trkpt lat="44.52209" lon="6.14096">
        <ele>85</ele>
        <time>2020-10-11T09:02:14Z</time>
      </trkpt>
      <trkpt lat="44.52209" lon="6.141">
        <ele>85</ele>
        <time>2020-10-11T09:02:20Z</time>
      </trkpt>
      <trkpt lat="44.52208" lon="6.14108">
        <ele>83</ele>
        <time>2020-10-11T09:02:40Z</time>
      </trkpt>
      <trkpt lat="44.52209" lon="6.14112">
        <ele>81</ele>
        <time>2020-10-11T09:03:22Z</time>
      </trkpt>
      <trkpt lat="44.5221" lon="6.14116">
        <ele>81</ele>
        <time>2020-10-11T09:03:33Z</time>
      </trkpt>
      <trkpt lat="44.52208" lon="6.1412">
        <ele>79</ele>
        <time>2020-10-11T09:03:45Z</time>
      </trkpt>
      <trkpt lat="44.52208" lon="6.14124">
        <ele>79</ele>
        <time>2020-10-11T09:03:55Z</time>
      </trkpt>
      <trkpt lat="44.52208" lon="6.14128">
        <ele>76</ele>
        <time>2020-10-11T09:04:24Z</time>
      </trkpt>
      <trkpt lat="44.52209" lon="6.14132">
        <ele>76</ele>
        <time>2020-10-11T09:05:38Z</time>
      </trkpt>
      <trkpt lat="44.52211" lon="6.14136">
        <ele>73</ele>
        <time>2020-10-11T09:05:51Z</time>
      </trkpt>
      <trkpt lat="44.52213" lon="6.14141">
        <ele>72</ele>
        <time>2020-10-11T09:06:07Z</time>
      </trkpt>
      <trkpt lat="44.52216" lon="6.14152">
        <ele>69</ele>
        <time>2020-10-11T09:06:20Z</time>
      </trkpt>
      <trkpt lat="44.52218" lon="6.14155">
        <ele>68</ele>
        <time>2020-10-11T09:06:58Z</time>
      </trkpt>
      <trkpt lat="44.52223" lon="6.14163">
        <ele>66</ele>
        <time>2020-10-11T09:07:38Z</time>
      </trkpt>
      <trkpt lat="44.52222" lon="6.14173">
        <ele>61</ele>
        <time>2020-10-11T09:08:09Z</time>
      </trkpt>
      <trkpt lat="44.52221" lon="6.14181">
        <ele>60</ele>
        <time>2020-10-11T09:08:15Z</time>
      </trkpt>
      <trkpt lat="44.5221" lon="6.14192">
        <ele>57</ele>
        <time>2020-10-11T09:08:48Z</time>
      </trkpt>
      <trkpt lat="44.52207" lon="6.14198">
        <ele>57</ele>
        <time>2020-10-11T09:08:52Z</time>
      </trkpt>
      <trkpt lat="44.52203" lon="6.14205">
        <ele>56</ele>
        <time>2020-10-11T09:08:56Z</time>
      </trkpt>
      <trkpt lat="44.52203" lon="6.14213">
        <ele>56</ele>
        <time>2020-10-11T09:09:01Z</time>
      </trkpt>
      <trkpt lat="44.52206" lon="6.14224">
        <ele>54</ele>
        <time>2020-10-11T09:09:18Z</time>
      </trkpt>
      <trkpt lat="44.52208" lon="6.14228">
        <ele>54</ele>
        <time>2020-10-11T09:09:31Z</time>
      </trkpt>
      <trkpt lat="44.52204" lon="6.14231">
        <ele>53</ele>
        <time>2020-10-11T09:10:05Z</time>
      </trkpt>
      <trkpt lat="44.52201" lon="6.14232">
        <ele>54</ele>
        <time>2020-10-11T09:10:11Z</time>
      </trkpt>
      <trkpt lat="44.52196" lon="6.14231">
        <ele>54</ele>
        <time>2020-10-11T09:10:15Z</time>
      </trkpt>
      <trkpt lat="44.52192" lon="6.1423">
        <ele>55</ele>
        <time>2020-10-11T09:10:25Z</time>
      </trkpt>
      <trkpt lat="44.5219" lon="6.14226">
        <ele>55</ele>
        <time>2020-10-11T09:10:28Z</time>
      </trkpt>
      <trkpt lat="44.52187" lon="6.14223">
        <ele>54</ele>
        <time>2020-10-11T09:10:36Z</time>
      </trkpt>
      <trkpt lat="44.52183" lon="6.14221">
        <ele>54</ele>
        <time>2020-10-11T09:10:39Z</time>
      </trkpt>
      <trkpt lat="44.52177" lon="6.14221">
        <ele>52</ele>
        <time>2020-10-11T09:10:52Z</time>
      </trkpt>
      <trkpt lat="44.52171" lon="6.14224">
        <ele>52</ele>
        <time>2020-10-11T09:10:56Z</time>
      </trkpt>
      <trkpt lat="44.5217" lon="6.14232">
        <ele>51</ele>
        <time>2020-10-11T09:11:00Z</time>
      </trkpt>
      <trkpt lat="44.52161" lon="6.14241">
        <ele>49</ele>
        <time>2020-10-11T09:11:22Z</time>
      </trkpt>
      <trkpt lat="44.52155" lon="6.14244">
        <ele>48</ele>
        <time>2020-10-11T09:11:26Z</time>
      </trkpt>
      <trkpt lat="44.52139" lon="6.14254">
        <ele>47</ele>
        <time>2020-10-11T09:11:36Z</time>
      </trkpt>
      <trkpt lat="44.52129" lon="6.14264">
        <ele>47</ele>
        <time>2020-10-11T09:11:48Z</time>
      </trkpt>
      <trkpt lat="44.52126" lon="6.14268">
        <ele>47</ele>
        <time>2020-10-11T09:11:54Z</time>
      </trkpt>
      <trkpt lat="44.52124" lon="6.14273">
        <ele>44</ele>
        <time>2020-10-11T09:12:04Z</time>
      </trkpt>
      <trkpt lat="44.5212" lon="6.14283">
        <ele>42</ele>
        <time>2020-10-11T09:12:21Z</time>
      </trkpt>
      <trkpt lat="44.52114" lon="6.1429">
        <ele>41</ele>
        <time>2020-10-11T09:12:30Z</time>
      </trkpt>
      <trkpt lat="44.52107" lon="6.14294">
        <ele>39</ele>
        <time>2020-10-11T09:13:00Z</time>
      </trkpt>
      <trkpt lat="44.52099" lon="6.14305">
        <ele>36</ele>
        <time>2020-10-11T09:13:29Z</time>
      </trkpt>
      <trkpt lat="44.52092" lon="6.14317">
        <ele>32</ele>
        <time>2020-10-11T09:14:22Z</time>
      </trkpt>
      <trkpt lat="44.52089" lon="6.1432">
        <ele>32</ele>
        <time>2020-10-11T09:14:56Z</time>
      </trkpt>
      <trkpt lat="44.52085" lon="6.1432">
        <ele>32</ele>
        <time>2020-10-11T09:15:52Z</time>
      </trkpt>
      <trkpt lat="44.52078" lon="6.14318">
        <ele>31</ele>
        <time>2020-10-11T09:16:02Z</time>
      </trkpt>
      <trkpt lat="44.52067" lon="6.14317">
        <ele>29</ele>
        <time>2020-10-11T09:16:25Z</time>
      </trkpt>
      <trkpt lat="44.52063" lon="6.14317">
        <ele>29</ele>
        <time>2020-10-11T09:17:02Z</time>
      </trkpt>
      <trkpt lat="44.5205" lon="6.14315">
        <ele>29</ele>
        <time>2020-10-11T09:17:19Z</time>
      </trkpt>
      <trkpt lat="44.52046" lon="6.14313">
        <ele>29</ele>
        <time>2020-10-11T09:17:27Z</time>
      </trkpt>
      <trkpt lat="44.52042" lon="6.14314">
        <ele>29</ele>
        <time>2020-10-11T09:17:38Z</time>
      </trkpt>
      <trkpt lat="44.52035" lon="6.14312">
        <ele>29</ele>
        <time>2020-10-11T09:17:43Z</time>
      </trkpt>
      <trkpt lat="44.5202" lon="6.14307">
        <ele>27</ele>
        <time>2020-10-11T09:18:08Z</time>
      </trkpt>
      <trkpt lat="44.52012" lon="6.14307">
        <ele>26</ele>
        <time>2020-10-11T09:18:15Z</time>
      </trkpt>
      <trkpt lat="44.52008" lon="6.14309">
        <ele>25</ele>
        <time>2020-10-11T09:18:21Z</time>
      </trkpt>
      <trkpt lat="44.51996" lon="6.14313">
        <ele>23</ele>
        <time>2020-10-11T09:18:38Z</time>
      </trkpt>
      <trkpt lat="44.51993" lon="6.14314">
        <ele>23</ele>
        <time>2020-10-11T09:18:41Z</time>
      </trkpt>
      <trkpt lat="44.5199" lon="6.14318">
        <ele>22</ele>
        <time>2020-10-11T09:18:46Z</time>
      </trkpt>
      <trkpt lat="44.5198" lon="6.14328">
        <ele>23</ele>
        <time>2020-10-11T09:19:01Z</time>
      </trkpt>
      <trkpt lat="44.51976" lon="6.14332">
        <ele>23</ele>
        <time>2020-10-11T09:19:06Z</time>
      </trkpt>
      <trkpt lat="44.5197" lon="6.14338">
        <ele>23</ele>
        <time>2020-10-11T09:19:18Z</time>
      </trkpt>
      <trkpt lat="44.51966" lon="6.1434">
        <ele>22</ele>
        <time>2020-10-11T09:19:24Z</time>
      </trkpt>
      <trkpt lat="44.51955" lon="6.14347">
        <ele>21</ele>
        <time>2020-10-11T09:19:34Z</time>
      </trkpt>
      <trkpt lat="44.51943" lon="6.1435">
        <ele>20</ele>
        <time>2020-10-11T09:19:48Z</time>
      </trkpt>
      <trkpt lat="44.51942" lon="6.1435">
        <ele>19</ele>
        <time>2020-10-11T09:20:04Z</time>
      </trkpt>
      <trkpt lat="44.51935" lon="6.14338">
        <ele>667</ele>
        <time>2020-10-11T09:20:28Z</time>
      </trkpt>
      <trkpt lat="44.51931" lon="6.14335">
        <ele>1116</ele>
        <time>2020-10-11T09:20:36Z</time>
      </trkpt>
      <trkpt lat="44.51927" lon="6.14325">
        <ele>1157</ele>
        <time>2020-10-11T09:21:04Z</time>
      </trkpt>
      <trkpt lat="44.51922" lon="6.14317">
        <ele>1156</ele>
        <time>2020-10-11T09:21:18Z</time>
      </trkpt>
      <trkpt lat="44.51919" lon="6.14315">
        <ele>1156</ele>
        <time>2020-10-11T09:21:23Z</time>
      </trkpt>
      <trkpt lat="44.51915" lon="6.14313">
        <ele>1155</ele>
        <time>2020-10-11T09:21:27Z</time>
      </trkpt>
      <trkpt lat="44.51908" lon="6.14314">
        <ele>1154</ele>
        <time>2020-10-11T09:21:35Z</time>
      </trkpt>
      <trkpt lat="44.51904" lon="6.14309">
        <ele>1153</ele>
        <time>2020-10-11T09:21:44Z</time>
      </trkpt>
      <trkpt lat="44.51902" lon="6.14305">
        <ele>1150</ele>
        <time>2020-10-11T09:22:25Z</time>
      </trkpt>
      <trkpt lat="44.51901" lon="6.14301">
        <ele>1149</ele>
        <time>2020-10-11T09:23:08Z</time>
      </trkpt>
      <trkpt lat="44.51898" lon="6.14296">
        <ele>1145</ele>
        <time>2020-10-11T09:23:29Z</time>
      </trkpt>
      <trkpt lat="44.51886" lon="6.14293">
        <ele>1142</ele>
        <time>2020-10-11T09:24:05Z</time>
      </trkpt>
      <trkpt lat="44.51883" lon="6.14292">
        <ele>1142</ele>
        <time>2020-10-11T09:24:10Z</time>
      </trkpt>
      <trkpt lat="44.51878" lon="6.14291">
        <ele>1140</ele>
        <time>2020-10-11T09:24:27Z</time>
      </trkpt>
      <trkpt lat="44.51867" lon="6.14301">
        <ele>1138</ele>
        <time>2020-10-11T09:24:40Z</time>
      </trkpt>
      <trkpt lat="44.51869" lon="6.14306">
        <ele>1136</ele>
        <time>2020-10-11T09:25:16Z</time>
      </trkpt>
      <trkpt lat="44.51869" lon="6.14312">
        <ele>1136</ele>
        <time>2020-10-11T09:26:03Z</time>
      </trkpt>
      <trkpt lat="44.51868" lon="6.14323">
        <ele>1136</ele>
        <time>2020-10-11T09:26:11Z</time>
      </trkpt>
      <trkpt lat="44.51865" lon="6.14333">
        <ele>1135</ele>
        <time>2020-10-11T09:26:21Z</time>
      </trkpt>
      <trkpt lat="44.51865" lon="6.1435">
        <ele>1135</ele>
        <time>2020-10-11T09:26:33Z</time>
      </trkpt>
      <trkpt lat="44.51865" lon="6.14356">
        <ele>1134</ele>
        <time>2020-10-11T09:26:39Z</time>
      </trkpt>
      <trkpt lat="44.51866" lon="6.14361">
        <ele>1133</ele>
        <time>2020-10-11T09:26:55Z</time>
      </trkpt>
      <trkpt lat="44.51863" lon="6.14364">
        <ele>1130</ele>
        <time>2020-10-11T09:27:29Z</time>
      </trkpt>
      <trkpt lat="44.51859" lon="6.14362">
        <ele>1129</ele>
        <time>2020-10-11T09:27:41Z</time>
      </trkpt>
      <trkpt lat="44.51856" lon="6.14358">
        <ele>1126</ele>
        <time>2020-10-11T09:27:45Z</time>
      </trkpt>
      <trkpt lat="44.51853" lon="6.14356">
        <ele>1123</ele>
        <time>2020-10-11T09:28:48Z</time>
      </trkpt>
      <trkpt lat="44.5185" lon="6.14353">
        <ele>1121</ele>
        <time>2020-10-11T09:29:37Z</time>
      </trkpt>
      <trkpt lat="44.51847" lon="6.14356">
        <ele>1121</ele>
        <time>2020-10-11T09:29:42Z</time>
      </trkpt>
      <trkpt lat="44.51848" lon="6.14361">
        <ele>1121</ele>
        <time>2020-10-11T09:29:57Z</time>
      </trkpt>
      <trkpt lat="44.5185" lon="6.14367">
        <ele>1119</ele>
        <time>2020-10-11T09:30:22Z</time>
      </trkpt>
      <trkpt lat="44.51851" lon="6.14364">
        <ele>1118</ele>
        <time>2020-10-11T09:31:04Z</time>
      </trkpt>
      <trkpt lat="44.51849" lon="6.14359">
        <ele>1118</ele>
        <time>2020-10-11T09:31:14Z</time>
      </trkpt>
      <trkpt lat="44.51848" lon="6.14354">
        <ele>1117</ele>
        <time>2020-10-11T09:31:20Z</time>
      </trkpt>
      <trkpt lat="44.51848" lon="6.14346">
        <ele>1116</ele>
        <time>2020-10-11T09:31:27Z</time>
      </trkpt>
      <trkpt lat="44.51843" lon="6.14336">
        <ele>1115</ele>
        <time>2020-10-11T09:32:24Z</time>
      </trkpt>
      <trkpt lat="44.5184" lon="6.14336">
        <ele>1114</ele>
        <time>2020-10-11T09:32:38Z</time>
      </trkpt>
      <trkpt lat="44.51838" lon="6.14331">
        <ele>1115</ele>
        <time>2020-10-11T09:34:48Z</time>
      </trkpt>
      <trkpt lat="44.51835" lon="6.14329">
        <ele>1114</ele>
        <time>2020-10-11T09:36:48Z</time>
      </trkpt>
      <trkpt lat="44.51832" lon="6.14326">
        <ele>1114</ele>
        <time>2020-10-11T09:38:36Z</time>
      </trkpt>
      <trkpt lat="44.51833" lon="6.14323">
        <ele>1114</ele>
        <time>2020-10-11T09:49:08Z</time>
      </trkpt>
      <trkpt lat="44.51839" lon="6.14329">
        <ele>1115</ele>
        <time>2020-10-11T09:49:29Z</time>
      </trkpt>
      <trkpt lat="44.51842" lon="6.14325">
        <ele>1115</ele>
        <time>2020-10-11T09:50:32Z</time>
      </trkpt>
      <trkpt lat="44.51844" lon="6.14322">
        <ele>1115</ele>
        <time>2020-10-11T09:51:18Z</time>
      </trkpt>
      <trkpt lat="44.51847" lon="6.14326">
        <ele>1115</ele>
        <time>2020-10-11T09:51:58Z</time>
      </trkpt>
      <trkpt lat="44.51843" lon="6.14328">
        <ele>1115</ele>
        <time>2020-10-11T09:53:51Z</time>
      </trkpt>
      <trkpt lat="44.51843" lon="6.14322">
        <ele>1115</ele>
        <time>2020-10-11T09:53:55Z</time>
      </trkpt>
      <trkpt lat="44.51843" lon="6.14312">
        <ele>1114</ele>
        <time>2020-10-11T09:54:05Z</time>
      </trkpt>
      <trkpt lat="44.51842" lon="6.14306">
        <ele>1114</ele>
        <time>2020-10-11T09:54:22Z</time>
      </trkpt>
      <trkpt lat="44.51842" lon="6.14279">
        <ele>1114</ele>
        <time>2020-10-11T09:54:42Z</time>
      </trkpt>
      <trkpt lat="44.51845" lon="6.14271">
        <ele>1114</ele>
        <time>2020-10-11T09:54:49Z</time>
      </trkpt>
      <trkpt lat="44.51846" lon="6.14262">
        <ele>1114</ele>
        <time>2020-10-11T09:54:56Z</time>
      </trkpt>
      <trkpt lat="44.51851" lon="6.14245">
        <ele>1113</ele>
        <time>2020-10-11T09:55:18Z</time>
      </trkpt>
      <trkpt lat="44.51849" lon="6.14245">
        <ele>1111</ele>
        <time>2020-10-11T09:55:51Z</time>
      </trkpt>
      <trkpt lat="44.51843" lon="6.14247">
        <ele>1110</ele>
        <time>2020-10-11T09:56:02Z</time>
      </trkpt>
      <trkpt lat="44.51841" lon="6.14252">
        <ele>1106</ele>
        <time>2020-10-11T09:56:11Z</time>
      </trkpt>
      <trkpt lat="44.51841" lon="6.14257">
        <ele>1106</ele>
        <time>2020-10-11T09:56:16Z</time>
      </trkpt>
      <trkpt lat="44.51839" lon="6.14262">
        <ele>1104</ele>
        <time>2020-10-11T09:56:24Z</time>
      </trkpt>
      <trkpt lat="44.51836" lon="6.14264">
        <ele>1103</ele>
        <time>2020-10-11T09:56:37Z</time>
      </trkpt>
      <trkpt lat="44.51832" lon="6.14262">
        <ele>1101</ele>
        <time>2020-10-11T09:56:43Z</time>
      </trkpt>
      <trkpt lat="44.51831" lon="6.14256">
        <ele>1101</ele>
        <time>2020-10-11T09:56:48Z</time>
      </trkpt>
      <trkpt lat="44.51831" lon="6.1424">
        <ele>1099</ele>
        <time>2020-10-11T09:57:03Z</time>
      </trkpt>
      <trkpt lat="44.5183" lon="6.14235">
        <ele>1098</ele>
        <time>2020-10-11T09:57:11Z</time>
      </trkpt>
      <trkpt lat="44.51834" lon="6.14225">
        <ele>1096</ele>
        <time>2020-10-11T09:57:20Z</time>
      </trkpt>
      <trkpt lat="44.51836" lon="6.1422">
        <ele>1095</ele>
        <time>2020-10-11T09:57:23Z</time>
      </trkpt>
      <trkpt lat="44.51834" lon="6.14216">
        <ele>1095</ele>
        <time>2020-10-11T09:57:30Z</time>
      </trkpt>
      <trkpt lat="44.51834" lon="6.14211">
        <ele>1094</ele>
        <time>2020-10-11T09:57:34Z</time>
      </trkpt>
      <trkpt lat="44.51834" lon="6.14205">
        <ele>1094</ele>
        <time>2020-10-11T09:57:37Z</time>
      </trkpt>
      <trkpt lat="44.51836" lon="6.14198">
        <ele>1093</ele>
        <time>2020-10-11T09:57:43Z</time>
      </trkpt>
      <trkpt lat="44.5184" lon="6.14182">
        <ele>1091</ele>
        <time>2020-10-11T09:57:56Z</time>
      </trkpt>
      <trkpt lat="44.51846" lon="6.14159">
        <ele>1087</ele>
        <time>2020-10-11T09:58:13Z</time>
      </trkpt>
      <trkpt lat="44.51849" lon="6.14155">
        <ele>1086</ele>
        <time>2020-10-11T09:58:26Z</time>
      </trkpt>
      <trkpt lat="44.51858" lon="6.14147">
        <ele>1086</ele>
        <time>2020-10-11T09:58:34Z</time>
      </trkpt>
      <trkpt lat="44.51864" lon="6.14144">
        <ele>1085</ele>
        <time>2020-10-11T09:58:37Z</time>
      </trkpt>
      <trkpt lat="44.5187" lon="6.14137">
        <ele>1084</ele>
        <time>2020-10-11T09:59:03Z</time>
      </trkpt>
      <trkpt lat="44.51873" lon="6.14133">
        <ele>1083</ele>
        <time>2020-10-11T09:59:06Z</time>
      </trkpt>
      <trkpt lat="44.51879" lon="6.14125">
        <ele>1082</ele>
        <time>2020-10-11T09:59:16Z</time>
      </trkpt>
      <trkpt lat="44.51882" lon="6.14122">
        <ele>1081</ele>
        <time>2020-10-11T09:59:20Z</time>
      </trkpt>
      <trkpt lat="44.5189" lon="6.14125">
        <ele>1080</ele>
        <time>2020-10-11T09:59:26Z</time>
      </trkpt>
      <trkpt lat="44.51886" lon="6.14123">
        <ele>1079</ele>
        <time>2020-10-11T10:00:11Z</time>
      </trkpt>
      <trkpt lat="44.51883" lon="6.1412">
        <ele>1077</ele>
        <time>2020-10-11T10:00:16Z</time>
      </trkpt>
      <trkpt lat="44.51882" lon="6.14114">
        <ele>1075</ele>
        <time>2020-10-11T10:00:22Z</time>
      </trkpt>
      <trkpt lat="44.51887" lon="6.1412">
        <ele>1073</ele>
        <time>2020-10-11T10:00:46Z</time>
      </trkpt>
      <trkpt lat="44.51891" lon="6.1412">
        <ele>1071</ele>
        <time>2020-10-11T10:00:58Z</time>
      </trkpt>
      <trkpt lat="44.51892" lon="6.14118">
        <ele>1071</ele>
        <time>2020-10-11T10:01:15Z</time>
      </trkpt>
      <trkpt lat="44.51888" lon="6.14119">
        <ele>1072</ele>
        <time>2020-10-11T10:01:21Z</time>
      </trkpt>
      <trkpt lat="44.51881" lon="6.14109">
        <ele>1074</ele>
        <time>2020-10-11T10:01:36Z</time>
      </trkpt>
      <trkpt lat="44.51877" lon="6.14105">
        <ele>1075</ele>
        <time>2020-10-11T10:01:47Z</time>
      </trkpt>
      <trkpt lat="44.51857" lon="6.14067">
        <ele>1075</ele>
        <time>2020-10-11T10:02:20Z</time>
      </trkpt>
      <trkpt lat="44.51859" lon="6.14059">
        <ele>1076</ele>
        <time>2020-10-11T10:02:27Z</time>
      </trkpt>
      <trkpt lat="44.51856" lon="6.14034">
        <ele>1077</ele>
        <time>2020-10-11T10:02:40Z</time>
      </trkpt>
      <trkpt lat="44.51857" lon="6.14026">
        <ele>1078</ele>
        <time>2020-10-11T10:02:48Z</time>
      </trkpt>
      <trkpt lat="44.51858" lon="6.14018">
        <ele>1078</ele>
        <time>2020-10-11T10:02:53Z</time>
      </trkpt>
      <trkpt lat="44.51859" lon="6.14012">
        <ele>1079</ele>
        <time>2020-10-11T10:03:00Z</time>
      </trkpt>
      <trkpt lat="44.51859" lon="6.14007">
        <ele>1080</ele>
        <time>2020-10-11T10:03:06Z</time>
      </trkpt>
      <trkpt lat="44.51846" lon="6.14007">
        <ele>1083</ele>
        <time>2020-10-11T10:03:28Z</time>
      </trkpt>
      <trkpt lat="44.51842" lon="6.14005">
        <ele>1083</ele>
        <time>2020-10-11T10:03:32Z</time>
      </trkpt>
      <trkpt lat="44.51838" lon="6.14002">
        <ele>1083</ele>
        <time>2020-10-11T10:03:35Z</time>
      </trkpt>
      <trkpt lat="44.51836" lon="6.13998">
        <ele>1084</ele>
        <time>2020-10-11T10:03:38Z</time>
      </trkpt>
      <trkpt lat="44.51834" lon="6.13992">
        <ele>1084</ele>
        <time>2020-10-11T10:03:42Z</time>
      </trkpt>
      <trkpt lat="44.51833" lon="6.13985">
        <ele>1084</ele>
        <time>2020-10-11T10:03:46Z</time>
      </trkpt>
      <trkpt lat="44.51828" lon="6.13974">
        <ele>1085</ele>
        <time>2020-10-11T10:03:55Z</time>
      </trkpt>
      <trkpt lat="44.51826" lon="6.13969">
        <ele>1085</ele>
        <time>2020-10-11T10:03:59Z</time>
      </trkpt>
      <trkpt lat="44.51826" lon="6.13964">
        <ele>1085</ele>
        <time>2020-10-11T10:04:09Z</time>
      </trkpt>
      <trkpt lat="44.51824" lon="6.13959">
        <ele>1085</ele>
        <time>2020-10-11T10:04:13Z</time>
      </trkpt>
      <trkpt lat="44.51822" lon="6.13955">
        <ele>1086</ele>
        <time>2020-10-11T10:04:18Z</time>
      </trkpt>
      <trkpt lat="44.51822" lon="6.1395">
        <ele>1086</ele>
        <time>2020-10-11T10:04:24Z</time>
      </trkpt>
      <trkpt lat="44.51821" lon="6.13944">
        <ele>1086</ele>
        <time>2020-10-11T10:04:33Z</time>
      </trkpt>
      <trkpt lat="44.5182" lon="6.13939">
        <ele>1086</ele>
        <time>2020-10-11T10:04:40Z</time>
      </trkpt>
      <trkpt lat="44.51817" lon="6.13932">
        <ele>1085</ele>
        <time>2020-10-11T10:04:48Z</time>
      </trkpt>
      <trkpt lat="44.51811" lon="6.13926">
        <ele>1085</ele>
        <time>2020-10-11T10:04:53Z</time>
      </trkpt>
      <trkpt lat="44.51806" lon="6.13921">
        <ele>1085</ele>
        <time>2020-10-11T10:04:58Z</time>
      </trkpt>
      <trkpt lat="44.51789" lon="6.13909">
        <ele>1084</ele>
        <time>2020-10-11T10:05:15Z</time>
      </trkpt>
      <trkpt lat="44.51783" lon="6.13905">
        <ele>1083</ele>
        <time>2020-10-11T10:05:21Z</time>
      </trkpt>
      <trkpt lat="44.51765" lon="6.13896">
        <ele>1081</ele>
        <time>2020-10-11T10:05:35Z</time>
      </trkpt>
      <trkpt lat="44.51761" lon="6.13895">
        <ele>1081</ele>
        <time>2020-10-11T10:05:39Z</time>
      </trkpt>
      <trkpt lat="44.51758" lon="6.13898">
        <ele>1080</ele>
        <time>2020-10-11T10:05:43Z</time>
      </trkpt>
      <trkpt lat="44.51754" lon="6.13899">
        <ele>1080</ele>
        <time>2020-10-11T10:05:50Z</time>
      </trkpt>
      <trkpt lat="44.5175" lon="6.13897">
        <ele>1080</ele>
        <time>2020-10-11T10:05:54Z</time>
      </trkpt>
      <trkpt lat="44.51742" lon="6.13894">
        <ele>1079</ele>
        <time>2020-10-11T10:06:01Z</time>
      </trkpt>
      <trkpt lat="44.51734" lon="6.13889">
        <ele>1079</ele>
        <time>2020-10-11T10:06:08Z</time>
      </trkpt>
      <trkpt lat="44.51718" lon="6.1389">
        <ele>1079</ele>
        <time>2020-10-11T10:06:22Z</time>
      </trkpt>
      <trkpt lat="44.51714" lon="6.13891">
        <ele>1079</ele>
        <time>2020-10-11T10:06:29Z</time>
      </trkpt>
      <trkpt lat="44.51707" lon="6.13897">
        <ele>1079</ele>
        <time>2020-10-11T10:06:37Z</time>
      </trkpt>
      <trkpt lat="44.51695" lon="6.13898">
        <ele>1079</ele>
        <time>2020-10-11T10:06:50Z</time>
      </trkpt>
      <trkpt lat="44.51689" lon="6.13897">
        <ele>1079</ele>
        <time>2020-10-11T10:06:55Z</time>
      </trkpt>
      <trkpt lat="44.51685" lon="6.13895">
        <ele>1079</ele>
        <time>2020-10-11T10:06:59Z</time>
      </trkpt>
      <trkpt lat="44.51656" lon="6.13893">
        <ele>1080</ele>
        <time>2020-10-11T10:07:26Z</time>
      </trkpt>
      <trkpt lat="44.51652" lon="6.13893">
        <ele>1080</ele>
        <time>2020-10-11T10:07:30Z</time>
      </trkpt>
      <trkpt lat="44.51649" lon="6.13893">
        <ele>1080</ele>
        <time>2020-10-11T10:07:34Z</time>
      </trkpt>
      <trkpt lat="44.51643" lon="6.13895">
        <ele>1080</ele>
        <time>2020-10-11T10:07:40Z</time>
      </trkpt>
      <trkpt lat="44.5164" lon="6.13893">
        <ele>1080</ele>
        <time>2020-10-11T10:07:49Z</time>
      </trkpt>
      <trkpt lat="44.51635" lon="6.13894">
        <ele>1080</ele>
        <time>2020-10-11T10:07:55Z</time>
      </trkpt>
      <trkpt lat="44.51632" lon="6.13894">
        <ele>1079</ele>
        <time>2020-10-11T10:07:57Z</time>
      </trkpt>
      <trkpt lat="44.51629" lon="6.13898">
        <ele>1079</ele>
        <time>2020-10-11T10:08:01Z</time>
      </trkpt>
      <trkpt lat="44.51624" lon="6.13899">
        <ele>1079</ele>
        <time>2020-10-11T10:08:08Z</time>
      </trkpt>
      <trkpt lat="44.51616" lon="6.13902">
        <ele>1078</ele>
        <time>2020-10-11T10:08:16Z</time>
      </trkpt>
      <trkpt lat="44.51609" lon="6.13904">
        <ele>1078</ele>
        <time>2020-10-11T10:08:23Z</time>
      </trkpt>
      <trkpt lat="44.51605" lon="6.13907">
        <ele>1078</ele>
        <time>2020-10-11T10:08:28Z</time>
      </trkpt>
      <trkpt lat="44.51585" lon="6.1391">
        <ele>1078</ele>
        <time>2020-10-11T10:09:05Z</time>
      </trkpt>
      <trkpt lat="44.51581" lon="6.13907">
        <ele>1078</ele>
        <time>2020-10-11T10:09:15Z</time>
      </trkpt>
      <trkpt lat="44.51581" lon="6.13913">
        <ele>1078</ele>
        <time>2020-10-11T10:10:42Z</time>
      </trkpt>
      <trkpt lat="44.51579" lon="6.13918">
        <ele>1078</ele>
        <time>2020-10-11T10:10:47Z</time>
      </trkpt>
      <trkpt lat="44.51576" lon="6.13922">
        <ele>1078</ele>
        <time>2020-10-11T10:10:54Z</time>
      </trkpt>
      <trkpt lat="44.51571" lon="6.1393">
        <ele>1078</ele>
        <time>2020-10-11T10:11:03Z</time>
      </trkpt>
      <trkpt lat="44.51567" lon="6.13934">
        <ele>1078</ele>
        <time>2020-10-11T10:11:06Z</time>
      </trkpt>
      <trkpt lat="44.51562" lon="6.13942">
        <ele>1078</ele>
        <time>2020-10-11T10:11:13Z</time>
      </trkpt>
      <trkpt lat="44.51555" lon="6.13933">
        <ele>1078</ele>
        <time>2020-10-11T10:11:24Z</time>
      </trkpt>
      <trkpt lat="44.51565" lon="6.13944">
        <ele>1077</ele>
        <time>2020-10-11T10:11:48Z</time>
      </trkpt>
      <trkpt lat="44.51567" lon="6.13948">
        <ele>1076</ele>
        <time>2020-10-11T10:11:52Z</time>
      </trkpt>
      <trkpt lat="44.51578" lon="6.13953">
        <ele>1073</ele>
        <time>2020-10-11T10:12:19Z</time>
      </trkpt>
      <trkpt lat="44.51582" lon="6.1395">
        <ele>1072</ele>
        <time>2020-10-11T10:12:31Z</time>
      </trkpt>
      <trkpt lat="44.51589" lon="6.13947">
        <ele>1071</ele>
        <time>2020-10-11T10:12:40Z</time>
      </trkpt>
      <trkpt lat="44.51593" lon="6.13944">
        <ele>1070</ele>
        <time>2020-10-11T10:12:43Z</time>
      </trkpt>
      <trkpt lat="44.51609" lon="6.1394">
        <ele>1069</ele>
        <time>2020-10-11T10:13:05Z</time>
      </trkpt>
      <trkpt lat="44.51613" lon="6.13938">
        <ele>1068</ele>
        <time>2020-10-11T10:13:10Z</time>
      </trkpt>
      <trkpt lat="44.51617" lon="6.13937">
        <ele>1068</ele>
        <time>2020-10-11T10:13:16Z</time>
      </trkpt>
      <trkpt lat="44.51622" lon="6.13938">
        <ele>1068</ele>
        <time>2020-10-11T10:13:20Z</time>
      </trkpt>
      <trkpt lat="44.51653" lon="6.13954">
        <ele>1066</ele>
        <time>2020-10-11T10:13:42Z</time>
      </trkpt>
      <trkpt lat="44.51656" lon="6.13958">
        <ele>1066</ele>
        <time>2020-10-11T10:13:48Z</time>
      </trkpt>
      <trkpt lat="44.51663" lon="6.13973">
        <ele>1065</ele>
        <time>2020-10-11T10:14:04Z</time>
      </trkpt>
      <trkpt lat="44.51667" lon="6.13977">
        <ele>1064</ele>
        <time>2020-10-11T10:14:21Z</time>
      </trkpt>
      <trkpt lat="44.5167" lon="6.1398">
        <ele>1064</ele>
        <time>2020-10-11T10:14:29Z</time>
      </trkpt>
      <trkpt lat="44.51672" lon="6.13984">
        <ele>1063</ele>
        <time>2020-10-11T10:14:34Z</time>
      </trkpt>
      <trkpt lat="44.51676" lon="6.13986">
        <ele>1063</ele>
        <time>2020-10-11T10:14:39Z</time>
      </trkpt>
      <trkpt lat="44.5168" lon="6.13988">
        <ele>1062</ele>
        <time>2020-10-11T10:14:44Z</time>
      </trkpt>
      <trkpt lat="44.51684" lon="6.13989">
        <ele>1061</ele>
        <time>2020-10-11T10:14:52Z</time>
      </trkpt>
      <trkpt lat="44.51695" lon="6.13997">
        <ele>1059</ele>
        <time>2020-10-11T10:15:05Z</time>
      </trkpt>
      <trkpt lat="44.51701" lon="6.14001">
        <ele>1058</ele>
        <time>2020-10-11T10:15:09Z</time>
      </trkpt>
      <trkpt lat="44.51706" lon="6.14004">
        <ele>1056</ele>
        <time>2020-10-11T10:15:21Z</time>
      </trkpt>
      <trkpt lat="44.51711" lon="6.14004">
        <ele>1054</ele>
        <time>2020-10-11T10:15:35Z</time>
      </trkpt>
      <trkpt lat="44.51719" lon="6.14004">
        <ele>1053</ele>
        <time>2020-10-11T10:15:42Z</time>
      </trkpt>
      <trkpt lat="44.51725" lon="6.14003">
        <ele>1051</ele>
        <time>2020-10-11T10:15:51Z</time>
      </trkpt>
      <trkpt lat="44.5173" lon="6.14006">
        <ele>1051</ele>
        <time>2020-10-11T10:15:55Z</time>
      </trkpt>
      <trkpt lat="44.51734" lon="6.14009">
        <ele>1049</ele>
        <time>2020-10-11T10:16:02Z</time>
      </trkpt>
      <trkpt lat="44.51738" lon="6.14012">
        <ele>1048</ele>
        <time>2020-10-11T10:16:08Z</time>
      </trkpt>
      <trkpt lat="44.51739" lon="6.14017">
        <ele>1047</ele>
        <time>2020-10-11T10:16:11Z</time>
      </trkpt>
      <trkpt lat="44.51746" lon="6.14023">
        <ele>1046</ele>
        <time>2020-10-11T10:16:22Z</time>
      </trkpt>
      <trkpt lat="44.5175" lon="6.14028">
        <ele>1045</ele>
        <time>2020-10-11T10:16:28Z</time>
      </trkpt>
      <trkpt lat="44.51751" lon="6.14033">
        <ele>1044</ele>
        <time>2020-10-11T10:16:39Z</time>
      </trkpt>
      <trkpt lat="44.51746" lon="6.14036">
        <ele>1043</ele>
        <time>2020-10-11T10:16:58Z</time>
      </trkpt>
      <trkpt lat="44.51743" lon="6.14037">
        <ele>1042</ele>
        <time>2020-10-11T10:17:01Z</time>
      </trkpt>
      <trkpt lat="44.51739" lon="6.14039">
        <ele>1042</ele>
        <time>2020-10-11T10:17:07Z</time>
      </trkpt>
      <trkpt lat="44.51736" lon="6.14039">
        <ele>1042</ele>
        <time>2020-10-11T10:17:10Z</time>
      </trkpt>
      <trkpt lat="44.51731" lon="6.14044">
        <ele>1041</ele>
        <time>2020-10-11T10:17:25Z</time>
      </trkpt>
      <trkpt lat="44.51727" lon="6.14047">
        <ele>1040</ele>
        <time>2020-10-11T10:17:32Z</time>
      </trkpt>
      <trkpt lat="44.51723" lon="6.14052">
        <ele>1038</ele>
        <time>2020-10-11T10:17:48Z</time>
      </trkpt>
      <trkpt lat="44.51719" lon="6.14056">
        <ele>1038</ele>
        <time>2020-10-11T10:17:53Z</time>
      </trkpt>
      <trkpt lat="44.5171" lon="6.1406">
        <ele>1037</ele>
        <time>2020-10-11T10:18:00Z</time>
      </trkpt>
      <trkpt lat="44.51707" lon="6.14063">
        <ele>1037</ele>
        <time>2020-10-11T10:18:04Z</time>
      </trkpt>
      <trkpt lat="44.51705" lon="6.1407">
        <ele>1037</ele>
        <time>2020-10-11T10:18:20Z</time>
      </trkpt>
      <trkpt lat="44.51705" lon="6.14077">
        <ele>1038</ele>
        <time>2020-10-11T10:18:29Z</time>
      </trkpt>
      <trkpt lat="44.51704" lon="6.14083">
        <ele>1038</ele>
        <time>2020-10-11T10:18:33Z</time>
      </trkpt>
      <trkpt lat="44.51709" lon="6.14094">
        <ele>1040</ele>
        <time>2020-10-11T10:18:50Z</time>
      </trkpt>
      <trkpt lat="44.51709" lon="6.14099">
        <ele>1040</ele>
        <time>2020-10-11T10:18:58Z</time>
      </trkpt>
      <trkpt lat="44.51711" lon="6.14105">
        <ele>1040</ele>
        <time>2020-10-11T10:19:06Z</time>
      </trkpt>
      <trkpt lat="44.51713" lon="6.14109">
        <ele>1040</ele>
        <time>2020-10-11T10:19:12Z</time>
      </trkpt>
      <trkpt lat="44.51715" lon="6.14114">
        <ele>1040</ele>
        <time>2020-10-11T10:19:16Z</time>
      </trkpt>
      <trkpt lat="44.51717" lon="6.14119">
        <ele>1040</ele>
        <time>2020-10-11T10:19:19Z</time>
      </trkpt>
      <trkpt lat="44.51718" lon="6.14131">
        <ele>1038</ele>
        <time>2020-10-11T10:19:34Z</time>
      </trkpt>
      <trkpt lat="44.51721" lon="6.14139">
        <ele>1037</ele>
        <time>2020-10-11T10:19:43Z</time>
      </trkpt>
      <trkpt lat="44.5172" lon="6.14149">
        <ele>1037</ele>
        <time>2020-10-11T10:19:48Z</time>
      </trkpt>
      <trkpt lat="44.5172" lon="6.14157">
        <ele>1036</ele>
        <time>2020-10-11T10:19:57Z</time>
      </trkpt>
      <trkpt lat="44.51719" lon="6.14163">
        <ele>1036</ele>
        <time>2020-10-11T10:20:01Z</time>
      </trkpt>
      <trkpt lat="44.51716" lon="6.14181">
        <ele>1034</ele>
        <time>2020-10-11T10:20:16Z</time>
      </trkpt>
      <trkpt lat="44.51715" lon="6.14188">
        <ele>1126</ele>
        <time>2020-10-11T10:20:21Z</time>
      </trkpt>
      <trkpt lat="44.51715" lon="6.14199">
        <ele>1045</ele>
        <time>2020-10-11T10:20:31Z</time>
      </trkpt>
      <trkpt lat="44.51714" lon="6.14204">
        <ele>1041</ele>
        <time>2020-10-11T10:20:34Z</time>
      </trkpt>
      <trkpt lat="44.51712" lon="6.14222">
        <ele>1036</ele>
        <time>2020-10-11T10:20:45Z</time>
      </trkpt>
      <trkpt lat="44.51711" lon="6.14234">
        <ele>1035</ele>
        <time>2020-10-11T10:20:51Z</time>
      </trkpt>
      <trkpt lat="44.51709" lon="6.1424">
        <ele>1035</ele>
        <time>2020-10-11T10:20:56Z</time>
      </trkpt>
      <trkpt lat="44.51707" lon="6.14244">
        <ele>1034</ele>
        <time>2020-10-11T10:21:01Z</time>
      </trkpt>
      <trkpt lat="44.51705" lon="6.14249">
        <ele>1034</ele>
        <time>2020-10-11T10:21:05Z</time>
      </trkpt>
      <trkpt lat="44.51704" lon="6.14255">
        <ele>1034</ele>
        <time>2020-10-11T10:21:09Z</time>
      </trkpt>
      <trkpt lat="44.51706" lon="6.1426">
        <ele>1034</ele>
        <time>2020-10-11T10:21:13Z</time>
      </trkpt>
      <trkpt lat="44.51707" lon="6.14265">
        <ele>1034</ele>
        <time>2020-10-11T10:21:17Z</time>
      </trkpt>
      <trkpt lat="44.51706" lon="6.1427">
        <ele>1033</ele>
        <time>2020-10-11T10:21:21Z</time>
      </trkpt>
      <trkpt lat="44.51707" lon="6.14277">
        <ele>1033</ele>
        <time>2020-10-11T10:21:25Z</time>
      </trkpt>
      <trkpt lat="44.51707" lon="6.14284">
        <ele>1033</ele>
        <time>2020-10-11T10:21:29Z</time>
      </trkpt>
      <trkpt lat="44.51703" lon="6.14286">
        <ele>1033</ele>
        <time>2020-10-11T10:21:32Z</time>
      </trkpt>
      <trkpt lat="44.51703" lon="6.14285">
        <ele>1033</ele>
        <time>2020-10-11T10:21:48Z</time>
      </trkpt>
      <trkpt lat="44.517" lon="6.14285">
        <ele>1033</ele>
        <time>2020-10-11T10:21:54Z</time>
      </trkpt>
      <trkpt lat="44.51697" lon="6.14289">
        <ele>1033</ele>
        <time>2020-10-11T10:22:00Z</time>
      </trkpt>
      <trkpt lat="44.51692" lon="6.14298">
        <ele>1033</ele>
        <time>2020-10-11T10:22:10Z</time>
      </trkpt>
      <trkpt lat="44.51689" lon="6.143">
        <ele>1033</ele>
        <time>2020-10-11T10:22:14Z</time>
      </trkpt>
      <trkpt lat="44.51686" lon="6.1431">
        <ele>1033</ele>
        <time>2020-10-11T10:22:20Z</time>
      </trkpt>
      <trkpt lat="44.51683" lon="6.14316">
        <ele>1033</ele>
        <time>2020-10-11T10:22:23Z</time>
      </trkpt>
      <trkpt lat="44.51679" lon="6.14327">
        <ele>1032</ele>
        <time>2020-10-11T10:22:34Z</time>
      </trkpt>
      <trkpt lat="44.51679" lon="6.14333">
        <ele>1031</ele>
        <time>2020-10-11T10:22:40Z</time>
      </trkpt>
      <trkpt lat="44.51673" lon="6.14341">
        <ele>1030</ele>
        <time>2020-10-11T10:22:55Z</time>
      </trkpt>
      <trkpt lat="44.51669" lon="6.14345">
        <ele>1029</ele>
        <time>2020-10-11T10:22:59Z</time>
      </trkpt>
      <trkpt lat="44.51666" lon="6.1436">
        <ele>1028</ele>
        <time>2020-10-11T10:23:16Z</time>
      </trkpt>
      <trkpt lat="44.51664" lon="6.14365">
        <ele>1027</ele>
        <time>2020-10-11T10:23:21Z</time>
      </trkpt>
      <trkpt lat="44.51661" lon="6.14379">
        <ele>1026</ele>
        <time>2020-10-11T10:23:27Z</time>
      </trkpt>
      <trkpt lat="44.51659" lon="6.14385">
        <ele>1026</ele>
        <time>2020-10-11T10:23:32Z</time>
      </trkpt>
      <trkpt lat="44.51659" lon="6.14391">
        <ele>1025</ele>
        <time>2020-10-11T10:23:36Z</time>
      </trkpt>
      <trkpt lat="44.51657" lon="6.14396">
        <ele>1024</ele>
        <time>2020-10-11T10:23:42Z</time>
      </trkpt>
      <trkpt lat="44.51656" lon="6.14409">
        <ele>1023</ele>
        <time>2020-10-11T10:23:53Z</time>
      </trkpt>
      <trkpt lat="44.51656" lon="6.14419">
        <ele>1021</ele>
        <time>2020-10-11T10:24:06Z</time>
      </trkpt>
      <trkpt lat="44.51656" lon="6.14425">
        <ele>1020</ele>
        <time>2020-10-11T10:24:11Z</time>
      </trkpt>
      <trkpt lat="44.51657" lon="6.1443">
        <ele>1019</ele>
        <time>2020-10-11T10:24:15Z</time>
      </trkpt>
      <trkpt lat="44.51658" lon="6.14435">
        <ele>1018</ele>
        <time>2020-10-11T10:24:18Z</time>
      </trkpt>
      <trkpt lat="44.51657" lon="6.14441">
        <ele>1017</ele>
        <time>2020-10-11T10:24:27Z</time>
      </trkpt>
      <trkpt lat="44.51654" lon="6.14458">
        <ele>1015</ele>
        <time>2020-10-11T10:24:36Z</time>
      </trkpt>
      <trkpt lat="44.51652" lon="6.14462">
        <ele>1014</ele>
        <time>2020-10-11T10:24:41Z</time>
      </trkpt>
      <trkpt lat="44.51644" lon="6.14459">
        <ele>1013</ele>
        <time>2020-10-11T10:24:50Z</time>
      </trkpt>
      <trkpt lat="44.51637" lon="6.14457">
        <ele>1011</ele>
        <time>2020-10-11T10:24:59Z</time>
      </trkpt>
      <trkpt lat="44.51632" lon="6.14458">
        <ele>1010</ele>
        <time>2020-10-11T10:25:07Z</time>
      </trkpt>
      <trkpt lat="44.51629" lon="6.14458">
        <ele>1009</ele>
        <time>2020-10-11T10:25:13Z</time>
      </trkpt>
      <trkpt lat="44.51624" lon="6.14457">
        <ele>1008</ele>
        <time>2020-10-11T10:25:20Z</time>
      </trkpt>
      <trkpt lat="44.5162" lon="6.14458">
        <ele>1007</ele>
        <time>2020-10-11T10:25:25Z</time>
      </trkpt>
      <trkpt lat="44.51617" lon="6.14456">
        <ele>1006</ele>
        <time>2020-10-11T10:25:29Z</time>
      </trkpt>
      <trkpt lat="44.51594" lon="6.14461">
        <ele>1000</ele>
        <time>2020-10-11T10:26:06Z</time>
      </trkpt>
      <trkpt lat="44.51586" lon="6.14459">
        <ele>999</ele>
        <time>2020-10-11T10:26:18Z</time>
      </trkpt>
      <trkpt lat="44.51578" lon="6.14463">
        <ele>997</ele>
        <time>2020-10-11T10:26:26Z</time>
      </trkpt>
      <trkpt lat="44.5157" lon="6.14466">
        <ele>995</ele>
        <time>2020-10-11T10:26:36Z</time>
      </trkpt>
      <trkpt lat="44.51565" lon="6.14464">
        <ele>995</ele>
        <time>2020-10-11T10:26:42Z</time>
      </trkpt>
      <trkpt lat="44.51563" lon="6.1446">
        <ele>993</ele>
        <time>2020-10-11T10:26:54Z</time>
      </trkpt>
      <trkpt lat="44.5156" lon="6.14458">
        <ele>993</ele>
        <time>2020-10-11T10:27:01Z</time>
      </trkpt>
      <trkpt lat="44.51557" lon="6.14455">
        <ele>992</ele>
        <time>2020-10-11T10:27:06Z</time>
      </trkpt>
      <trkpt lat="44.51554" lon="6.14451">
        <ele>992</ele>
        <time>2020-10-11T10:27:10Z</time>
      </trkpt>
      <trkpt lat="44.51551" lon="6.14449">
        <ele>991</ele>
        <time>2020-10-11T10:27:15Z</time>
      </trkpt>
      <trkpt lat="44.51548" lon="6.14452">
        <ele>990</ele>
        <time>2020-10-11T10:27:35Z</time>
      </trkpt>
      <trkpt lat="44.51549" lon="6.14457">
        <ele>989</ele>
        <time>2020-10-11T10:27:39Z</time>
      </trkpt>
      <trkpt lat="44.51548" lon="6.14462">
        <ele>987</ele>
        <time>2020-10-11T10:27:44Z</time>
      </trkpt>
      <trkpt lat="44.51548" lon="6.14468">
        <ele>986</ele>
        <time>2020-10-11T10:27:51Z</time>
      </trkpt>
      <trkpt lat="44.51548" lon="6.14491">
        <ele>982</ele>
        <time>2020-10-11T10:28:19Z</time>
      </trkpt>
      <trkpt lat="44.5155" lon="6.14503">
        <ele>981</ele>
        <time>2020-10-11T10:28:26Z</time>
      </trkpt>
      <trkpt lat="44.5155" lon="6.14509">
        <ele>980</ele>
        <time>2020-10-11T10:28:31Z</time>
      </trkpt>
      <trkpt lat="44.51551" lon="6.14515">
        <ele>979</ele>
        <time>2020-10-11T10:28:36Z</time>
      </trkpt>
      <trkpt lat="44.51552" lon="6.14521">
        <ele>978</ele>
        <time>2020-10-11T10:28:40Z</time>
      </trkpt>
      <trkpt lat="44.5155" lon="6.14526">
        <ele>977</ele>
        <time>2020-10-11T10:28:54Z</time>
      </trkpt>
      <trkpt lat="44.51546" lon="6.14529">
        <ele>977</ele>
        <time>2020-10-11T10:28:58Z</time>
      </trkpt>
      <trkpt lat="44.51538" lon="6.1453">
        <ele>977</ele>
        <time>2020-10-11T10:29:05Z</time>
      </trkpt>
      <trkpt lat="44.51536" lon="6.14526">
        <ele>977</ele>
        <time>2020-10-11T10:29:10Z</time>
      </trkpt>
      <trkpt lat="44.51533" lon="6.14519">
        <ele>977</ele>
        <time>2020-10-11T10:29:16Z</time>
      </trkpt>
      <trkpt lat="44.51529" lon="6.14514">
        <ele>978</ele>
        <time>2020-10-11T10:29:20Z</time>
      </trkpt>
      <trkpt lat="44.51531" lon="6.14507">
        <ele>978</ele>
        <time>2020-10-11T10:29:28Z</time>
      </trkpt>
      <trkpt lat="44.51532" lon="6.14509">
        <ele>978</ele>
        <time>2020-10-11T10:29:44Z</time>
      </trkpt>
      <trkpt lat="44.51529" lon="6.14512">
        <ele>977</ele>
        <time>2020-10-11T10:29:50Z</time>
      </trkpt>
      <trkpt lat="44.51525" lon="6.14516">
        <ele>975</ele>
        <time>2020-10-11T10:29:57Z</time>
      </trkpt>
      <trkpt lat="44.51523" lon="6.14521">
        <ele>974</ele>
        <time>2020-10-11T10:30:07Z</time>
      </trkpt>
      <trkpt lat="44.51519" lon="6.14525">
        <ele>972</ele>
        <time>2020-10-11T10:30:11Z</time>
      </trkpt>
      <trkpt lat="44.51516" lon="6.14529">
        <ele>972</ele>
        <time>2020-10-11T10:30:14Z</time>
      </trkpt>
      <trkpt lat="44.51512" lon="6.14533">
        <ele>971</ele>
        <time>2020-10-11T10:30:17Z</time>
      </trkpt>
      <trkpt lat="44.51504" lon="6.14537">
        <ele>970</ele>
        <time>2020-10-11T10:30:30Z</time>
      </trkpt>
      <trkpt lat="44.515" lon="6.14539">
        <ele>969</ele>
        <time>2020-10-11T10:30:35Z</time>
      </trkpt>
      <trkpt lat="44.51497" lon="6.14545">
        <ele>968</ele>
        <time>2020-10-11T10:30:38Z</time>
      </trkpt>
      <trkpt lat="44.51497" lon="6.1455">
        <ele>968</ele>
        <time>2020-10-11T10:30:45Z</time>
      </trkpt>
      <trkpt lat="44.51493" lon="6.14552">
        <ele>967</ele>
        <time>2020-10-11T10:30:54Z</time>
      </trkpt>
      <trkpt lat="44.51485" lon="6.14558">
        <ele>965</ele>
        <time>2020-10-11T10:31:14Z</time>
      </trkpt>
      <trkpt lat="44.51486" lon="6.14563">
        <ele>963</ele>
        <time>2020-10-11T10:31:33Z</time>
      </trkpt>
      <trkpt lat="44.51489" lon="6.14567">
        <ele>961</ele>
        <time>2020-10-11T10:31:43Z</time>
      </trkpt>
      <trkpt lat="44.51488" lon="6.14572">
        <ele>960</ele>
        <time>2020-10-11T10:32:23Z</time>
      </trkpt>
      <trkpt lat="44.51485" lon="6.1457">
        <ele>960</ele>
        <time>2020-10-11T10:32:38Z</time>
      </trkpt>
      <trkpt lat="44.51485" lon="6.14575">
        <ele>959</ele>
        <time>2020-10-11T10:33:43Z</time>
      </trkpt>
      <trkpt lat="44.51488" lon="6.14593">
        <ele>955</ele>
        <time>2020-10-11T10:33:59Z</time>
      </trkpt>
      <trkpt lat="44.5149" lon="6.14605">
        <ele>953</ele>
        <time>2020-10-11T10:34:09Z</time>
      </trkpt>
      <trkpt lat="44.51494" lon="6.14615">
        <ele>951</ele>
        <time>2020-10-11T10:34:18Z</time>
      </trkpt>
      <trkpt lat="44.515" lon="6.14629">
        <ele>949</ele>
        <time>2020-10-11T10:34:30Z</time>
      </trkpt>
      <trkpt lat="44.51502" lon="6.14634">
        <ele>948</ele>
        <time>2020-10-11T10:34:33Z</time>
      </trkpt>
      <trkpt lat="44.51504" lon="6.14644">
        <ele>946</ele>
        <time>2020-10-11T10:34:41Z</time>
      </trkpt>
      <trkpt lat="44.51506" lon="6.1465">
        <ele>945</ele>
        <time>2020-10-11T10:34:47Z</time>
      </trkpt>
      <trkpt lat="44.51507" lon="6.14655">
        <ele>945</ele>
        <time>2020-10-11T10:34:52Z</time>
      </trkpt>
      <trkpt lat="44.51509" lon="6.1466">
        <ele>944</ele>
        <time>2020-10-11T10:34:54Z</time>
      </trkpt>
      <trkpt lat="44.51513" lon="6.1467">
        <ele>943</ele>
        <time>2020-10-11T10:35:02Z</time>
      </trkpt>
      <trkpt lat="44.51518" lon="6.14675">
        <ele>942</ele>
        <time>2020-10-11T10:35:06Z</time>
      </trkpt>
      <trkpt lat="44.51526" lon="6.14677">
        <ele>940</ele>
        <time>2020-10-11T10:35:13Z</time>
      </trkpt>
      <trkpt lat="44.51535" lon="6.1468">
        <ele>939</ele>
        <time>2020-10-11T10:35:21Z</time>
      </trkpt>
      <trkpt lat="44.51538" lon="6.14684">
        <ele>938</ele>
        <time>2020-10-11T10:35:26Z</time>
      </trkpt>
      <trkpt lat="44.51539" lon="6.14689">
        <ele>937</ele>
        <time>2020-10-11T10:35:33Z</time>
      </trkpt>
      <trkpt lat="44.5154" lon="6.14695">
        <ele>936</ele>
        <time>2020-10-11T10:35:41Z</time>
      </trkpt>
      <trkpt lat="44.5154" lon="6.147">
        <ele>935</ele>
        <time>2020-10-11T10:35:48Z</time>
      </trkpt>
      <trkpt lat="44.51539" lon="6.14706">
        <ele>934</ele>
        <time>2020-10-11T10:35:54Z</time>
      </trkpt>
      <trkpt lat="44.51536" lon="6.14716">
        <ele>931</ele>
        <time>2020-10-11T10:36:17Z</time>
      </trkpt>
      <trkpt lat="44.51534" lon="6.14727">
        <ele>927</ele>
        <time>2020-10-11T10:36:33Z</time>
      </trkpt>
      <trkpt lat="44.51529" lon="6.14745">
        <ele>923</ele>
        <time>2020-10-11T10:37:02Z</time>
      </trkpt>
      <trkpt lat="44.51522" lon="6.14767">
        <ele>917</ele>
        <time>2020-10-11T10:37:51Z</time>
      </trkpt>
      <trkpt lat="44.51516" lon="6.14783">
        <ele>915</ele>
        <time>2020-10-11T10:38:02Z</time>
      </trkpt>
      <trkpt lat="44.51513" lon="6.148">
        <ele>914</ele>
        <time>2020-10-11T10:38:09Z</time>
      </trkpt>
      <trkpt lat="44.51509" lon="6.14807">
        <ele>913</ele>
        <time>2020-10-11T10:38:13Z</time>
      </trkpt>
      <trkpt lat="44.51507" lon="6.14816">
        <ele>913</ele>
        <time>2020-10-11T10:38:21Z</time>
      </trkpt>
      <trkpt lat="44.51508" lon="6.14822">
        <ele>912</ele>
        <time>2020-10-11T10:38:24Z</time>
      </trkpt>
      <trkpt lat="44.51508" lon="6.14827">
        <ele>911</ele>
        <time>2020-10-11T10:38:34Z</time>
      </trkpt>
      <trkpt lat="44.51509" lon="6.14833">
        <ele>910</ele>
        <time>2020-10-11T10:38:40Z</time>
      </trkpt>
      <trkpt lat="44.5151" lon="6.14839">
        <ele>909</ele>
        <time>2020-10-11T10:38:44Z</time>
      </trkpt>
      <trkpt lat="44.51511" lon="6.14844">
        <ele>907</ele>
        <time>2020-10-11T10:38:59Z</time>
      </trkpt>
      <trkpt lat="44.51516" lon="6.14851">
        <ele>906</ele>
        <time>2020-10-11T10:39:43Z</time>
      </trkpt>
      <trkpt lat="44.51519" lon="6.14855">
        <ele>906</ele>
        <time>2020-10-11T10:40:22Z</time>
      </trkpt>
      <trkpt lat="44.51515" lon="6.14857">
        <ele>906</ele>
        <time>2020-10-11T10:40:55Z</time>
      </trkpt>
      <trkpt lat="44.51514" lon="6.1485">
        <ele>906</ele>
        <time>2020-10-11T10:41:02Z</time>
      </trkpt>
      <trkpt lat="44.51516" lon="6.14844">
        <ele>906</ele>
        <time>2020-10-11T10:41:05Z</time>
      </trkpt>
      <trkpt lat="44.51521" lon="6.14829">
        <ele>905</ele>
        <time>2020-10-11T10:41:15Z</time>
      </trkpt>
      <trkpt lat="44.51531" lon="6.14816">
        <ele>904</ele>
        <time>2020-10-11T10:41:24Z</time>
      </trkpt>
      <trkpt lat="44.51534" lon="6.14813">
        <ele>903</ele>
        <time>2020-10-11T10:41:28Z</time>
      </trkpt>
      <trkpt lat="44.51542" lon="6.14799">
        <ele>902</ele>
        <time>2020-10-11T10:41:43Z</time>
      </trkpt>
      <trkpt lat="44.51545" lon="6.14794">
        <ele>902</ele>
        <time>2020-10-11T10:41:47Z</time>
      </trkpt>
      <trkpt lat="44.5155" lon="6.14793">
        <ele>902</ele>
        <time>2020-10-11T10:41:51Z</time>
      </trkpt>
      <trkpt lat="44.51553" lon="6.14791">
        <ele>902</ele>
        <time>2020-10-11T10:41:55Z</time>
      </trkpt>
      <trkpt lat="44.51557" lon="6.14782">
        <ele>901</ele>
        <time>2020-10-11T10:42:04Z</time>
      </trkpt>
      <trkpt lat="44.51563" lon="6.14775">
        <ele>900</ele>
        <time>2020-10-11T10:42:10Z</time>
      </trkpt>
      <trkpt lat="44.51569" lon="6.14768">
        <ele>900</ele>
        <time>2020-10-11T10:42:17Z</time>
      </trkpt>
      <trkpt lat="44.51573" lon="6.14765">
        <ele>899</ele>
        <time>2020-10-11T10:42:21Z</time>
      </trkpt>
      <trkpt lat="44.51576" lon="6.14762">
        <ele>899</ele>
        <time>2020-10-11T10:42:25Z</time>
      </trkpt>
      <trkpt lat="44.51578" lon="6.14756">
        <ele>898</ele>
        <time>2020-10-11T10:42:32Z</time>
      </trkpt>
      <trkpt lat="44.51577" lon="6.14751">
        <ele>898</ele>
        <time>2020-10-11T10:42:37Z</time>
      </trkpt>
      <trkpt lat="44.51581" lon="6.14748">
        <ele>898</ele>
        <time>2020-10-11T10:42:41Z</time>
      </trkpt>
      <trkpt lat="44.51585" lon="6.14748">
        <ele>897</ele>
        <time>2020-10-11T10:42:46Z</time>
      </trkpt>
      <trkpt lat="44.51593" lon="6.14752">
        <ele>898</ele>
        <time>2020-10-11T10:42:52Z</time>
      </trkpt>
      <trkpt lat="44.51595" lon="6.14756">
        <ele>898</ele>
        <time>2020-10-11T10:42:58Z</time>
      </trkpt>
      <trkpt lat="44.51602" lon="6.14769">
        <ele>898</ele>
        <time>2020-10-11T10:43:11Z</time>
      </trkpt>
      <trkpt lat="44.51599" lon="6.14781">
        <ele>898</ele>
        <time>2020-10-11T10:43:26Z</time>
      </trkpt>
      <trkpt lat="44.51599" lon="6.14786">
        <ele>899</ele>
        <time>2020-10-11T10:43:30Z</time>
      </trkpt>
      <trkpt lat="44.51599" lon="6.14792">
        <ele>899</ele>
        <time>2020-10-11T10:43:37Z</time>
      </trkpt>
      <trkpt lat="44.51597" lon="6.14797">
        <ele>899</ele>
        <time>2020-10-11T10:43:43Z</time>
      </trkpt>
      <trkpt lat="44.51596" lon="6.14804">
        <ele>899</ele>
        <time>2020-10-11T10:43:47Z</time>
      </trkpt>
      <trkpt lat="44.51596" lon="6.14816">
        <ele>900</ele>
        <time>2020-10-11T10:43:54Z</time>
      </trkpt>
      <trkpt lat="44.51598" lon="6.14827">
        <ele>900</ele>
        <time>2020-10-11T10:44:03Z</time>
      </trkpt>
      <trkpt lat="44.51599" lon="6.14838">
        <ele>900</ele>
        <time>2020-10-11T10:44:13Z</time>
      </trkpt>
      <trkpt lat="44.51606" lon="6.14858">
        <ele>902</ele>
        <time>2020-10-11T10:44:28Z</time>
      </trkpt>
      <trkpt lat="44.51616" lon="6.14877">
        <ele>904</ele>
        <time>2020-10-11T10:44:57Z</time>
      </trkpt>
      <trkpt lat="44.51619" lon="6.14881">
        <ele>905</ele>
        <time>2020-10-11T10:45:07Z</time>
      </trkpt>
      <trkpt lat="44.51624" lon="6.14882">
        <ele>905</ele>
        <time>2020-10-11T10:45:11Z</time>
      </trkpt>
      <trkpt lat="44.51633" lon="6.14882">
        <ele>906</ele>
        <time>2020-10-11T10:45:23Z</time>
      </trkpt>
      <trkpt lat="44.51648" lon="6.14875">
        <ele>908</ele>
        <time>2020-10-11T10:45:40Z</time>
      </trkpt>
      <trkpt lat="44.51652" lon="6.14876">
        <ele>908</ele>
        <time>2020-10-11T10:45:45Z</time>
      </trkpt>
      <trkpt lat="44.51664" lon="6.14874">
        <ele>909</ele>
        <time>2020-10-11T10:46:01Z</time>
      </trkpt>
      <trkpt lat="44.51667" lon="6.14874">
        <ele>909</ele>
        <time>2020-10-11T10:46:07Z</time>
      </trkpt>
      <trkpt lat="44.51676" lon="6.14875">
        <ele>910</ele>
        <time>2020-10-11T10:46:17Z</time>
      </trkpt>
      <trkpt lat="44.5168" lon="6.14876">
        <ele>910</ele>
        <time>2020-10-11T10:46:21Z</time>
      </trkpt>
      <trkpt lat="44.51684" lon="6.14875">
        <ele>911</ele>
        <time>2020-10-11T10:46:25Z</time>
      </trkpt>
      <trkpt lat="44.51696" lon="6.14872">
        <ele>912</ele>
        <time>2020-10-11T10:46:37Z</time>
      </trkpt>
      <trkpt lat="44.51703" lon="6.14872">
        <ele>912</ele>
        <time>2020-10-11T10:46:43Z</time>
      </trkpt>
      <trkpt lat="44.5171" lon="6.14868">
        <ele>912</ele>
        <time>2020-10-11T10:46:51Z</time>
      </trkpt>
      <trkpt lat="44.51714" lon="6.14866">
        <ele>912</ele>
        <time>2020-10-11T10:46:56Z</time>
      </trkpt>
      <trkpt lat="44.51718" lon="6.14866">
        <ele>912</ele>
        <time>2020-10-11T10:47:03Z</time>
      </trkpt>
      <trkpt lat="44.51722" lon="6.14865">
        <ele>912</ele>
        <time>2020-10-11T10:47:06Z</time>
      </trkpt>
      <trkpt lat="44.51726" lon="6.14866">
        <ele>912</ele>
        <time>2020-10-11T10:47:09Z</time>
      </trkpt>
      <trkpt lat="44.51735" lon="6.14865">
        <ele>911</ele>
        <time>2020-10-11T10:47:20Z</time>
      </trkpt>
      <trkpt lat="44.51739" lon="6.14863">
        <ele>911</ele>
        <time>2020-10-11T10:47:27Z</time>
      </trkpt>
      <trkpt lat="44.51742" lon="6.14861">
        <ele>911</ele>
        <time>2020-10-11T10:47:33Z</time>
      </trkpt>
      <trkpt lat="44.51747" lon="6.1486">
        <ele>911</ele>
        <time>2020-10-11T10:47:38Z</time>
      </trkpt>
      <trkpt lat="44.51752" lon="6.14866">
        <ele>911</ele>
        <time>2020-10-11T10:47:42Z</time>
      </trkpt>
      <trkpt lat="44.51755" lon="6.1487">
        <ele>911</ele>
        <time>2020-10-11T10:47:45Z</time>
      </trkpt>
      <trkpt lat="44.51757" lon="6.14876">
        <ele>911</ele>
        <time>2020-10-11T10:47:49Z</time>
      </trkpt>
      <trkpt lat="44.51756" lon="6.14882">
        <ele>910</ele>
        <time>2020-10-11T10:47:52Z</time>
      </trkpt>
      <trkpt lat="44.51754" lon="6.1489">
        <ele>910</ele>
        <time>2020-10-11T10:48:02Z</time>
      </trkpt>
      <trkpt lat="44.51746" lon="6.14914">
        <ele>910</ele>
        <time>2020-10-11T10:48:19Z</time>
      </trkpt>
      <trkpt lat="44.51744" lon="6.14919">
        <ele>910</ele>
        <time>2020-10-11T10:48:22Z</time>
      </trkpt>
      <trkpt lat="44.51741" lon="6.14925">
        <ele>910</ele>
        <time>2020-10-11T10:48:26Z</time>
      </trkpt>
      <trkpt lat="44.5174" lon="6.1493">
        <ele>909</ele>
        <time>2020-10-11T10:48:31Z</time>
      </trkpt>
      <trkpt lat="44.5174" lon="6.14953">
        <ele>909</ele>
        <time>2020-10-11T10:48:46Z</time>
      </trkpt>
      <trkpt lat="44.51741" lon="6.14958">
        <ele>909</ele>
        <time>2020-10-11T10:48:50Z</time>
      </trkpt>
      <trkpt lat="44.51744" lon="6.1496">
        <ele>909</ele>
        <time>2020-10-11T10:48:55Z</time>
      </trkpt>
      <trkpt lat="44.51748" lon="6.1496">
        <ele>908</ele>
        <time>2020-10-11T10:49:00Z</time>
      </trkpt>
      <trkpt lat="44.51758" lon="6.14948">
        <ele>908</ele>
        <time>2020-10-11T10:49:09Z</time>
      </trkpt>
      <trkpt lat="44.51764" lon="6.14944">
        <ele>907</ele>
        <time>2020-10-11T10:49:14Z</time>
      </trkpt>
      <trkpt lat="44.51781" lon="6.14942">
        <ele>906</ele>
        <time>2020-10-11T10:49:30Z</time>
      </trkpt>
      <trkpt lat="44.51786" lon="6.14946">
        <ele>905</ele>
        <time>2020-10-11T10:49:34Z</time>
      </trkpt>
      <trkpt lat="44.51792" lon="6.14955">
        <ele>904</ele>
        <time>2020-10-11T10:49:42Z</time>
      </trkpt>
      <trkpt lat="44.51801" lon="6.14991">
        <ele>903</ele>
        <time>2020-10-11T10:50:10Z</time>
      </trkpt>
      <trkpt lat="44.51802" lon="6.14998">
        <ele>902</ele>
        <time>2020-10-11T10:50:14Z</time>
      </trkpt>
      <trkpt lat="44.51796" lon="6.15019">
        <ele>902</ele>
        <time>2020-10-11T10:50:28Z</time>
      </trkpt>
      <trkpt lat="44.51794" lon="6.15024">
        <ele>902</ele>
        <time>2020-10-11T10:50:32Z</time>
      </trkpt>
      <trkpt lat="44.51791" lon="6.15025">
        <ele>902</ele>
        <time>2020-10-11T10:50:35Z</time>
      </trkpt>
      <trkpt lat="44.51787" lon="6.15026">
        <ele>902</ele>
        <time>2020-10-11T10:50:44Z</time>
      </trkpt>
      <trkpt lat="44.51786" lon="6.15033">
        <ele>903</ele>
        <time>2020-10-11T10:50:49Z</time>
      </trkpt>
      <trkpt lat="44.51785" lon="6.15036">
        <ele>903</ele>
        <time>2020-10-11T10:50:52Z</time>
      </trkpt>
      <trkpt lat="44.51787" lon="6.15046">
        <ele>903</ele>
        <time>2020-10-11T10:51:02Z</time>
      </trkpt>
      <trkpt lat="44.51788" lon="6.15055">
        <ele>903</ele>
        <time>2020-10-11T10:51:10Z</time>
      </trkpt>
      <trkpt lat="44.51792" lon="6.15062">
        <ele>903</ele>
        <time>2020-10-11T10:51:15Z</time>
      </trkpt>
      <trkpt lat="44.51814" lon="6.15096">
        <ele>902</ele>
        <time>2020-10-11T10:51:49Z</time>
      </trkpt>
      <trkpt lat="44.51815" lon="6.151">
        <ele>902</ele>
        <time>2020-10-11T10:51:57Z</time>
      </trkpt>
      <trkpt lat="44.51816" lon="6.15104">
        <ele>902</ele>
        <time>2020-10-11T10:52:00Z</time>
      </trkpt>
      <trkpt lat="44.51833" lon="6.15122">
        <ele>901</ele>
        <time>2020-10-11T10:52:19Z</time>
      </trkpt>
      <trkpt lat="44.51837" lon="6.15124">
        <ele>901</ele>
        <time>2020-10-11T10:52:24Z</time>
      </trkpt>
      <trkpt lat="44.51865" lon="6.15124">
        <ele>899</ele>
        <time>2020-10-11T10:52:51Z</time>
      </trkpt>
      <trkpt lat="44.51877" lon="6.15127">
        <ele>900</ele>
        <time>2020-10-11T10:53:03Z</time>
      </trkpt>
      <trkpt lat="44.51887" lon="6.15133">
        <ele>900</ele>
        <time>2020-10-11T10:53:12Z</time>
      </trkpt>
      <trkpt lat="44.51911" lon="6.15141">
        <ele>904</ele>
        <time>2020-10-11T10:53:47Z</time>
      </trkpt>
      <trkpt lat="44.51931" lon="6.1514">
        <ele>906</ele>
        <time>2020-10-11T10:54:16Z</time>
      </trkpt>
      <trkpt lat="44.51935" lon="6.15138">
        <ele>907</ele>
        <time>2020-10-11T10:54:28Z</time>
      </trkpt>
      <trkpt lat="44.51953" lon="6.15134">
        <ele>910</ele>
        <time>2020-10-11T10:54:59Z</time>
      </trkpt>
      <trkpt lat="44.51974" lon="6.1513">
        <ele>913</ele>
        <time>2020-10-11T10:55:24Z</time>
      </trkpt>
      <trkpt lat="44.51978" lon="6.15131">
        <ele>913</ele>
        <time>2020-10-11T10:55:29Z</time>
      </trkpt>
      <trkpt lat="44.51986" lon="6.15136">
        <ele>915</ele>
        <time>2020-10-11T10:55:44Z</time>
      </trkpt>
      <trkpt lat="44.52002" lon="6.15133">
        <ele>916</ele>
        <time>2020-10-11T10:55:55Z</time>
      </trkpt>
      <trkpt lat="44.52007" lon="6.15134">
        <ele>916</ele>
        <time>2020-10-11T10:56:04Z</time>
      </trkpt>
      <trkpt lat="44.52026" lon="6.15143">
        <ele>918</ele>
        <time>2020-10-11T10:56:31Z</time>
      </trkpt>
      <trkpt lat="44.5203" lon="6.15146">
        <ele>919</ele>
        <time>2020-10-11T10:56:38Z</time>
      </trkpt>
      <trkpt lat="44.52033" lon="6.15149">
        <ele>919</ele>
        <time>2020-10-11T10:56:43Z</time>
      </trkpt>
      <trkpt lat="44.5206" lon="6.15151">
        <ele>919</ele>
        <time>2020-10-11T10:57:13Z</time>
      </trkpt>
      <trkpt lat="44.5207" lon="6.15154">
        <ele>919</ele>
        <time>2020-10-11T10:57:25Z</time>
      </trkpt>
      <trkpt lat="44.52073" lon="6.15147">
        <ele>919</ele>
        <time>2020-10-11T10:57:37Z</time>
      </trkpt>
      <trkpt lat="44.52077" lon="6.15147">
        <ele>919</ele>
        <time>2020-10-11T10:57:51Z</time>
      </trkpt>
      <trkpt lat="44.52082" lon="6.15148">
        <ele>919</ele>
        <time>2020-10-11T10:57:55Z</time>
      </trkpt>
      <trkpt lat="44.52087" lon="6.15149">
        <ele>920</ele>
        <time>2020-10-11T10:57:58Z</time>
      </trkpt>
      <trkpt lat="44.52091" lon="6.15148">
        <ele>920</ele>
        <time>2020-10-11T10:58:02Z</time>
      </trkpt>
      <trkpt lat="44.52096" lon="6.1515">
        <ele>920</ele>
        <time>2020-10-11T10:58:06Z</time>
      </trkpt>
      <trkpt lat="44.52111" lon="6.15155">
        <ele>920</ele>
        <time>2020-10-11T10:58:19Z</time>
      </trkpt>
      <trkpt lat="44.52119" lon="6.15153">
        <ele>919</ele>
        <time>2020-10-11T10:58:27Z</time>
      </trkpt>
      <trkpt lat="44.52125" lon="6.1515">
        <ele>919</ele>
        <time>2020-10-11T10:58:37Z</time>
      </trkpt>
      <trkpt lat="44.5213" lon="6.15147">
        <ele>919</ele>
        <time>2020-10-11T10:58:42Z</time>
      </trkpt>
      <trkpt lat="44.52133" lon="6.15143">
        <ele>918</ele>
        <time>2020-10-11T10:58:45Z</time>
      </trkpt>
      <trkpt lat="44.5215" lon="6.1513">
        <ele>918</ele>
        <time>2020-10-11T10:59:01Z</time>
      </trkpt>
      <trkpt lat="44.52154" lon="6.15128">
        <ele>918</ele>
        <time>2020-10-11T10:59:07Z</time>
      </trkpt>
      <trkpt lat="44.52158" lon="6.15123">
        <ele>919</ele>
        <time>2020-10-11T10:59:20Z</time>
      </trkpt>
      <trkpt lat="44.52168" lon="6.15112">
        <ele>919</ele>
        <time>2020-10-11T10:59:32Z</time>
      </trkpt>
      <trkpt lat="44.52171" lon="6.15108">
        <ele>919</ele>
        <time>2020-10-11T10:59:35Z</time>
      </trkpt>
      <trkpt lat="44.52175" lon="6.15109">
        <ele>919</ele>
        <time>2020-10-11T10:59:39Z</time>
      </trkpt>
    </trkseg>
  </trk>
</gpx>